M I D A S
Marine Information and Data Acquisition System
Tripno 1745 of the Zeeleeuw from 2009-08-04 06:22:04 to 2009-08-04 17:50:58
Back to CruiseResearch ActivitiesStationsMapUnderway DataData graphs

EquipmentUnitsComment
TimeDGPSUTC
LatitudeDGPSDM.mWGS84
LongitudeDGPSDM.mWGS84
TemperatureSBE03/SBE38deg celciusITS90
ConductivitySBE21S/mITS90
SalinitySBE21 Practical Salinity Units
ChlorophylAChelsea fluorimeterg/lCalibrated in Aceton
Missing or incorrect values are displayed as -999
Sea surface data collected by the RV Zeeleeuw from 2009-08-04 06:21:46 to 2009-08-04 18:01:26
                                                                                    Next 1000 lines
Time Latitude Longitude Temperature Conductivity Salinity ChlorophylA
2009-08-04 06:21:56 51°13.692 2°55.735 22.4331 2.435539 15.926248 38.559557
2009-08-04 06:22:01 51°13.693 2°55.734 22.4325 2.434195 15.916629 38.594381
2009-08-04 06:22:06 51°13.693 2°55.733 22.4317 2.434506 15.919126 38.594381
2009-08-04 06:22:10 51°13.693 2°55.732 22.4319 2.434402 15.918386 38.559557
2009-08-04 06:22:16 51°13.694 2°55.732 22.4323 2.434402 15.918663 38.594381
2009-08-04 06:22:21 51°13.694 2°55.732 22.432 2.434506 15.919403 38.594381
2009-08-04 06:22:25 51°13.695 2°55.732 22.4318 2.434506 15.919403 38.594381
2009-08-04 06:22:30 51°13.696 2°55.732 22.4323 2.434402 15.918663 38.594381
2009-08-04 06:22:35 51°13.697 2°55.733 22.4319 2.434402 15.918663 38.559557
2009-08-04 06:22:40 51°13.698 2°55.733 22.4324 2.434299 15.9182 38.559557
2009-08-04 06:22:45 51°13.699 2°55.734 22.4327 2.434402 15.91894 38.559557
2009-08-04 06:22:50 51°13.701 2°55.734 22.4325 2.434402 15.91894 38.559557
2009-08-04 06:22:55 51°13.703 2°55.734 22.4334 2.434402 15.91894 38.559557
2009-08-04 06:23:00 51°13.705 2°55.734 22.4334 2.434506 15.91968 38.559557
2009-08-04 06:23:05 51°13.707 2°55.734 22.4367 2.434506 15.919957 38.559557
2009-08-04 06:23:10 51°13.709 2°55.734 22.437 2.434506 15.919957 38.559557
2009-08-04 06:23:14 51°13.711 2°55.734 22.4365 2.434609 15.920974 38.559557
2009-08-04 06:23:19 51°13.713 2°55.734 22.4383 2.434506 15.920511 38.559557
2009-08-04 06:23:25 51°13.716 2°55.734 22.443 2.434506 15.920511 38.559557
2009-08-04 06:23:30 51°13.719 2°55.733 22.4436 2.435022 15.924488 38.559557
2009-08-04 06:23:34 51°13.721 2°55.732 22.4427 2.435022 15.924488 38.559557
2009-08-04 06:23:39 51°13.724 2°55.731 22.4457 2.434195 15.918845 38.524733
2009-08-04 06:23:45 51°13.728 2°55.728 22.4426 2.433782 15.915608 38.559557
2009-08-04 06:23:50 51°13.731 2°55.726 22.45 2.434195 15.918568 38.524733
2009-08-04 06:23:56 51°13.736 2°55.722 22.4451 2.434195 15.918568 38.524733
2009-08-04 06:24:01 51°13.74 2°55.718 22.4416 2.433369 15.912648 38.524733
2009-08-04 06:24:06 51°13.745 2°55.714 22.4141 2.433472 15.913111 38.524733
2009-08-04 06:24:10 51°13.749 2°55.711 22.4095 2.433265 15.911354 38.524733
2009-08-04 06:24:15 51°13.754 2°55.706 22.4067 2.433265 15.911354 38.524733
2009-08-04 06:24:20 51°13.759 2°55.701 22.4034 2.432748 15.907655 38.524733
2009-08-04 06:24:25 51°13.765 2°55.696 22.398 2.432748 15.907655 38.524733
2009-08-04 06:24:30 51°13.771 2°55.691 22.4008 2.433058 15.909875 38.524733
2009-08-04 06:24:35 51°13.777 2°55.685 22.3976 2.433058 15.910151 38.524733
2009-08-04 06:24:40 51°13.783 2°55.68 22.4038 2.432852 15.908948 38.524733
2009-08-04 06:24:45 51°13.79 2°55.674 22.4025 2.432852 15.909225 38.524733
2009-08-04 06:24:50 51°13.797 2°55.668 22.4086 2.432645 15.907745 38.524733
2009-08-04 06:24:55 51°13.804 2°55.661 22.412 2.432645 15.907745 38.524733
2009-08-04 06:25:00 51°13.812 2°55.655 22.4137 2.432645 15.907745 38.524733
2009-08-04 06:25:05 51°13.82 2°55.649 22.4146 2.432645 15.908022 38.559557
2009-08-04 06:25:10 51°13.827 2°55.643 22.4168 2.432438 15.906266 38.524733
2009-08-04 06:25:14 51°13.834 2°55.638 22.4145 2.432335 15.905802 38.524733
2009-08-04 06:25:20 51°13.844 2°55.631 22.421 2.432335 15.905802 38.524733
2009-08-04 06:25:25 51°13.852 2°55.624 22.4119 2.432335 15.905802 38.524733
2009-08-04 06:25:29 51°13.859 2°55.619 22.4207 2.432438 15.906819 38.524733
2009-08-04 06:25:34 51°13.867 2°55.612 22.4145 2.432438 15.906542 38.524733
2009-08-04 06:25:39 51°13.875 2°55.605 22.425 2.432542 15.907559 38.524733
2009-08-04 06:25:45 51°13.885 2°55.597 22.4323 2.432542 15.907836 38.524733
2009-08-04 06:25:49 51°13.892 2°55.592 22.4215 2.431921 15.903396 38.524733
2009-08-04 06:25:54 51°13.901 2°55.584 22.4086 2.431921 15.903396 38.524733
2009-08-04 06:25:59 51°13.909 2°55.578 22.4067 2.432025 15.904136 38.524733
2009-08-04 06:26:04 51°13.918 2°55.571 22.414 2.432955 15.911073 38.524733
2009-08-04 06:26:09 51°13.927 2°55.564 22.4233 2.432232 15.905893 38.524733
2009-08-04 06:26:14 51°13.936 2°55.557 22.425 2.432438 15.90765 38.524733
2009-08-04 06:26:18 51°13.943 2°55.551 22.4286 2.432128 15.90543 38.524733
2009-08-04 06:26:24 51°13.953 2°55.543 22.4136 2.432128 15.90543 38.524733
2009-08-04 06:26:29 51°13.962 2°55.536 22.419 2.432128 15.90543 38.524733
2009-08-04 06:26:34 51°13.971 2°55.53 22.4254 2.431611 15.90173 38.524733
2009-08-04 06:26:38 51°13.976 2°55.524 22.4289 2.432128 15.90543 38.489909
2009-08-04 06:26:43 51°13.984 2°55.517 22.4258 2.432025 15.904967 38.489909
2009-08-04 06:26:48 51°13.994 2°55.51 22.4229 2.432438 15.907927 38.524733
2009-08-04 06:26:54 51°14.006 2°55.502 22.4293 2.432438 15.907927 38.524733
2009-08-04 06:26:58 51°14.014 2°55.496 22.4352 2.432542 15.908944 38.489909
2009-08-04 06:27:03 51°14.023 2°55.489 22.432 2.432025 15.905244 38.489909
2009-08-04 06:27:08 51°14.033 2°55.482 22.4294 2.431611 15.902007 38.489909
2009-08-04 06:27:13 51°14.043 2°55.474 22.4309 2.432232 15.906724 38.489909
2009-08-04 06:27:18 51°14.053 2°55.467 22.4269 2.432335 15.907741 38.489909
2009-08-04 06:27:23 51°14.063 2°55.46 22.4275 2.432335 15.907741 38.489909
2009-08-04 06:27:28 51°14.073 2°55.452 22.4304 2.431611 15.90256 38.489909
2009-08-04 06:27:33 51°14.083 2°55.445 22.4297 2.432128 15.906261 38.489909
2009-08-04 06:27:38 51°14.093 2°55.437 22.4276 2.432025 15.905797 38.489909
2009-08-04 06:27:43 51°14.103 2°55.43 22.4366 2.432232 15.907278 38.489909
2009-08-04 06:27:48 51°14.113 2°55.422 22.4458 2.432335 15.908295 38.489909
2009-08-04 06:27:53 51°14.122 2°55.414 22.4534 2.432335 15.908295 38.489909
2009-08-04 06:27:57 51°14.13 2°55.407 22.4546 2.432335 15.908572 38.489909
2009-08-04 06:28:02 51°14.139 2°55.399 22.4532 2.432025 15.906351 38.489909
2009-08-04 06:28:07 51°14.149 2°55.39 22.4575 2.432645 15.911069 38.489909
2009-08-04 06:28:12 51°14.158 2°55.38 22.4605 2.432645 15.911069 38.455085
2009-08-04 06:28:17 51°14.167 2°55.371 22.458 2.432748 15.912086 38.455085
2009-08-04 06:28:22 51°14.176 2°55.361 22.4611 2.432748 15.912086 38.455085
2009-08-04 06:28:27 51°14.185 2°55.35 22.4526 2.432748 15.912086 38.455085
2009-08-04 06:28:33 51°14.196 2°55.338 22.4506 2.432232 15.908385 38.455085
2009-08-04 06:28:37 51°14.203 2°55.329 22.4522 2.432748 15.912086 38.455085
2009-08-04 06:28:42 51°14.211 2°55.317 22.4479 2.432438 15.909866 38.455085
2009-08-04 06:28:47 51°14.22 2°55.306 22.4483 2.432748 15.912086 38.455085
2009-08-04 06:28:53 51°14.23 2°55.292 22.4685 2.432748 15.912086 38.455085
2009-08-04 06:28:57 51°14.236 2°55.282 22.4528 2.432025 15.907182 38.455085
2009-08-04 06:29:02 51°14.244 2°55.269 22.4453 2.432025 15.907182 38.455085
2009-08-04 06:29:07 51°14.252 2°55.256 22.4319 2.432232 15.908662 38.455085
2009-08-04 06:29:13 51°14.262 2°55.24 22.4456 2.432438 15.91042 38.455085
2009-08-04 06:29:17 51°14.268 2°55.229 22.4471 2.432438 15.91042 38.455085
2009-08-04 06:29:22 51°14.275 2°55.215 22.4683 2.432438 15.91042 38.455085
2009-08-04 06:29:27 51°14.283 2°55.201 22.439 2.432128 15.908476 38.455085
2009-08-04 06:29:32 51°14.29 2°55.187 22.4597 2.432128 15.908199 38.455085
2009-08-04 06:29:37 51°14.298 2°55.172 22.4603 2.432542 15.911437 38.455085
2009-08-04 06:29:42 51°14.305 2°55.157 22.4401 2.431095 15.901075 38.455085
2009-08-04 06:29:47 51°14.312 2°55.142 22.4142 2.431508 15.903758 38.455085
2009-08-04 06:29:52 51°14.319 2°55.127 22.4339 2.431508 15.903758 38.455085
2009-08-04 06:29:57 51°14.326 2°55.112 22.4456 2.432542 15.91116 38.455085
2009-08-04 06:30:02 51°14.334 2°55.097 22.4456 2.431715 15.905516 38.455085
2009-08-04 06:30:07 51°14.341 2°55.082 22.4368 2.430784 15.898855 38.455085
2009-08-04 06:30:12 51°14.349 2°55.067 22.4371 2.432128 15.908476 38.420261
2009-08-04 06:30:17 51°14.356 2°55.051 22.4699 2.432645 15.912731 38.455085
2009-08-04 06:30:22 51°14.364 2°55.035 22.4832 2.432645 15.912731 38.455085
2009-08-04 06:30:27 51°14.37 2°55.019 22.4742 2.433369 15.918467 38.420261
2009-08-04 06:30:33 51°14.378 2°54.999 22.4742 2.433472 15.919761 38.455085
2009-08-04 06:30:37 51°14.383 2°54.985 22.4839 2.433679 15.921242 38.420261
2009-08-04 06:30:42 51°14.388 2°54.968 22.4848 2.433369 15.919576 38.420261
2009-08-04 06:30:47 51°14.393 2°54.949 22.4618 2.433472 15.920593 38.420261
2009-08-04 06:30:53 51°14.398 2°54.927 22.4687 2.433472 15.920593 38.420261
2009-08-04 06:30:57 51°14.4 2°54.911 22.471 2.433575 15.921334 38.420261
2009-08-04 06:31:02 51°14.403 2°54.892 22.4911 2.434196 15.925775 38.420261
2009-08-04 06:31:07 51°14.406 2°54.872 22.4746 2.433472 15.92087 38.385437
2009-08-04 06:31:13 51°14.407 2°54.848 22.4654 2.433782 15.922814 38.420261
2009-08-04 06:31:17 51°14.407 2°54.831 22.454 2.432955 15.916892 38.420261
2009-08-04 06:31:22 51°14.407 2°54.81 22.4852 2.432955 15.916892 38.420261
2009-08-04 06:31:27 51°14.407 2°54.789 22.4747 2.434092 15.925312 38.385437
2009-08-04 06:31:32 51°14.406 2°54.768 22.468 2.433679 15.922628 38.385437
2009-08-04 06:31:37 51°14.404 2°54.746 22.4797 2.434713 15.930309 38.385437
2009-08-04 06:31:42 51°14.401 2°54.724 22.4617 2.432232 15.912264 38.385437
2009-08-04 06:31:47 51°14.396 2°54.702 22.4348 2.431198 15.904584 38.385437
2009-08-04 06:31:52 51°14.392 2°54.68 22.4452 2.431198 15.904584 38.385437
2009-08-04 06:31:57 51°14.387 2°54.658 22.4594 2.432438 15.91319 38.420261
2009-08-04 06:32:02 51°14.381 2°54.635 22.4401 2.431405 15.905788 38.385437
2009-08-04 06:32:07 51°14.375 2°54.613 22.4236 2.431198 15.90403 38.385437
2009-08-04 06:32:12 51°14.369 2°54.59 22.4308 2.431301 15.904494 38.385437
2009-08-04 06:32:17 51°14.363 2°54.566 22.4179 2.431095 15.902736 38.385437
2009-08-04 06:32:22 51°14.356 2°54.543 22.4257 2.431095 15.902736 38.385437
2009-08-04 06:32:27 51°14.35 2°54.519 22.4205 2.431198 15.903753 38.385437
2009-08-04 06:32:32 51°14.343 2°54.495 22.4247 2.430371 15.897832 38.385437
2009-08-04 06:32:37 51°14.337 2°54.471 22.461 2.432128 15.910692 38.350613
2009-08-04 06:32:42 51°14.33 2°54.447 22.447 2.430268 15.897646 38.350613
2009-08-04 06:32:47 51°14.323 2°54.423 22.4199 2.430371 15.898386 38.385437
2009-08-04 06:32:53 51°14.315 2°54.394 22.433 2.430371 15.898386 38.385437
2009-08-04 06:32:57 51°14.31 2°54.375 22.4419 2.429854 15.894685 38.385437
2009-08-04 06:33:02 51°14.303 2°54.351 22.4334 2.430164 15.897182 38.385437
2009-08-04 06:33:07 51°14.296 2°54.327 22.4287 2.430164 15.897182 38.350613
2009-08-04 06:33:13 51°14.287 2°54.298 22.441 2.429027 15.888764 38.385437
2009-08-04 06:33:17 51°14.282 2°54.278 22.4625 2.429647 15.893481 38.385437
2009-08-04 06:33:22 51°14.275 2°54.254 22.4601 2.429647 15.893481 38.385437
2009-08-04 06:33:27 51°14.268 2°54.23 22.4609 2.429854 15.895238 38.350613
2009-08-04 06:33:33 51°14.259 2°54.201 22.4515 2.430061 15.896719 38.385437
2009-08-04 06:33:37 51°14.253 2°54.181 22.4627 2.429751 15.894775 38.350613
2009-08-04 06:33:42 51°14.246 2°54.157 22.4489 2.428717 15.887096 38.350613
2009-08-04 06:33:47 51°14.239 2°54.133 22.442 2.430474 15.899957 38.350613
2009-08-04 06:33:53 51°14.23 2°54.105 22.4501 2.430474 15.899957 38.350613
2009-08-04 06:33:57 51°14.224 2°54.085 22.4594 2.428614 15.886633 38.350613
2009-08-04 06:34:02 51°14.217 2°54.061 22.4692 2.429958 15.896255 38.350613
2009-08-04 06:34:07 51°14.21 2°54.037 22.4601 2.429234 15.891351 38.350613
2009-08-04 06:34:12 51°14.202 2°54.013 22.4708 2.429337 15.892091 38.350613
2009-08-04 06:34:17 51°14.195 2°53.989 22.4571 2.429751 15.895329 38.350613
2009-08-04 06:34:22 51°14.188 2°53.965 22.4596 2.429751 15.895329 38.350613
2009-08-04 06:34:27 51°14.181 2°53.94 22.4705 2.429958 15.897086 38.350613
2009-08-04 06:34:32 51°14.174 2°53.916 22.4585 2.430474 15.900787 38.350613
2009-08-04 06:34:37 51°14.166 2°53.892 22.4485 2.429027 15.890424 38.350613
2009-08-04 06:34:42 51°14.159 2°53.868 22.4579 2.429337 15.892645 38.350613
2009-08-04 06:34:47 51°14.152 2°53.844 22.4559 2.429441 15.893662 38.350613
2009-08-04 06:34:53 51°14.143 2°53.814 22.443 2.429441 15.893662 38.350613
2009-08-04 06:34:57 51°14.137 2°53.795 22.4612 2.429337 15.892921 38.350613
2009-08-04 06:35:02 51°14.13 2°53.77 22.4562 2.429234 15.892458 38.315788
2009-08-04 06:35:07 51°14.123 2°53.746 22.4471 2.429544 15.895232 38.350613
2009-08-04 06:35:13 51°14.115 2°53.717 22.4579 2.429648 15.895696 38.315788
2009-08-04 06:35:17 51°14.109 2°53.697 22.459 2.428614 15.88857 38.350613
2009-08-04 06:35:22 51°14.102 2°53.673 22.4581 2.428614 15.88857 38.350613
2009-08-04 06:35:27 51°14.095 2°53.649 22.4514 2.429234 15.893288 38.350613
2009-08-04 06:35:33 51°14.086 2°53.619 22.4463 2.428717 15.889587 38.315788
2009-08-04 06:35:37 51°14.08 2°53.6 22.4642 2.429648 15.89625 38.350613
2009-08-04 06:35:42 51°14.073 2°53.576 22.4627 2.429337 15.894029 38.350613
2009-08-04 06:35:47 51°14.066 2°53.551 22.4681 2.428924 15.891068 38.315788
2009-08-04 06:35:53 51°14.057 2°53.522 22.4622 2.428924 15.891068 38.315788
2009-08-04 06:35:57 51°14.051 2°53.503 22.4653 2.429337 15.894029 38.315788
2009-08-04 06:36:02 51°14.044 2°53.478 22.4686 2.428821 15.890327 38.315788
2009-08-04 06:36:07 51°14.037 2°53.454 22.4635 2.429027 15.892085 38.315788
2009-08-04 06:36:12 51°14.031 2°53.429 22.4677 2.429544 15.895786 38.280964
2009-08-04 06:36:17 51°14.023 2°53.405 22.4656 2.429234 15.893842 38.315788
2009-08-04 06:36:22 51°14.016 2°53.38 22.454 2.429234 15.893842 38.315788
2009-08-04 06:36:27 51°14.009 2°53.356 22.4745 2.428614 15.8894 38.315788
2009-08-04 06:36:32 51°14.002 2°53.331 22.4564 2.429751 15.897821 38.315788
2009-08-04 06:36:37 51°13.995 2°53.306 22.4505 2.429648 15.897634 38.315788
2009-08-04 06:36:42 51°13.988 2°53.282 22.4767 2.429131 15.894209 38.315788
2009-08-04 06:36:47 51°13.981 2°53.257 22.4656 2.429854 15.899669 38.280964
2009-08-04 06:36:52 51°13.974 2°53.233 22.4647 2.429854 15.899669 38.280964
2009-08-04 06:36:57 51°13.967 2°53.208 22.4513 2.429027 15.893469 38.315788
2009-08-04 06:37:02 51°13.96 2°53.184 22.4567 2.428511 15.88949 38.315788
2009-08-04 06:37:07 51°13.953 2°53.159 22.4734 2.429751 15.898929 38.315788
2009-08-04 06:37:13 51°13.945 2°53.129 22.4767 2.428614 15.890784 38.315788
2009-08-04 06:37:17 51°13.939 2°53.109 22.4669 2.429648 15.898465 38.315788
2009-08-04 06:37:22 51°13.932 2°53.085 22.4765 2.429648 15.898465 38.315788
2009-08-04 06:37:27 51°13.926 2°53.06 22.4657 2.429854 15.899946 38.315788
2009-08-04 06:37:33 51°13.917 2°53.03 22.483 2.429027 15.8943 38.280964
2009-08-04 06:37:37 51°13.912 2°53.01 22.4701 2.429234 15.896057 38.280964
2009-08-04 06:37:42 51°13.905 2°52.985 22.4704 2.4282 15.888377 38.280964
2009-08-04 06:37:47 51°13.898 2°52.96 22.4569 2.428717 15.892079 38.280964
2009-08-04 06:37:53 51°13.89 2°52.931 22.4542 2.428717 15.892079 38.280964
2009-08-04 06:37:57 51°13.884 2°52.911 22.4768 2.428924 15.893836 38.280964
2009-08-04 06:38:02 51°13.877 2°52.886 22.4782 2.429854 15.900777 38.280964
2009-08-04 06:38:07 51°13.871 2°52.861 22.4872 2.428821 15.893373 38.280964
2009-08-04 06:38:13 51°13.862 2°52.831 22.4708 2.428717 15.892909 38.280964
2009-08-04 06:38:17 51°13.857 2°52.811 22.4787 2.428821 15.89365 38.315788
2009-08-04 06:38:22 51°13.85 2°52.786 22.4792 2.428821 15.89365 38.315788
2009-08-04 06:38:27 51°13.843 2°52.761 22.4684 2.428511 15.891428 38.280964
2009-08-04 06:38:32 51°13.836 2°52.736 22.4676 2.428511 15.891428 38.315788
2009-08-04 06:38:37 51°13.829 2°52.711 22.4723 2.429234 15.896611 38.280964
2009-08-04 06:38:42 51°13.822 2°52.686 22.4664 2.428821 15.893927 38.280964
2009-08-04 06:38:47 51°13.815 2°52.662 22.4807 2.428924 15.894944 38.280964
2009-08-04 06:38:52 51°13.808 2°52.637 22.4762 2.428924 15.894944 38.280964
2009-08-04 06:38:57 51°13.801 2°52.612 22.4765 2.428924 15.894944 38.280964
2009-08-04 06:39:02 51°13.794 2°52.587 22.4622 2.428511 15.892259 38.280964
2009-08-04 06:39:07 51°13.787 2°52.563 22.479 2.428201 15.889761 38.280964
2009-08-04 06:39:12 51°13.78 2°52.538 22.4766 2.428614 15.893276 38.24614
2009-08-04 06:39:17 51°13.773 2°52.513 22.47 2.428097 15.889297 38.24614
2009-08-04 06:39:22 51°13.765 2°52.489 22.4594 2.428097 15.889297 38.24614
2009-08-04 06:39:27 51°13.758 2°52.464 22.4779 2.42789 15.887816 38.280964
2009-08-04 06:39:33 51°13.75 2°52.434 22.4921 2.429441 15.899477 38.280964
2009-08-04 06:39:37 51°13.744 2°52.414 22.4742 2.428097 15.890128 38.280964
2009-08-04 06:39:42 51°13.737 2°52.389 22.4609 2.428717 15.894294 38.280964
2009-08-04 06:39:47 51°13.73 2°52.365 22.487 2.429854 15.902994 38.24614
2009-08-04 06:39:53 51°13.722 2°52.335 22.4822 2.429854 15.902994 38.24614
2009-08-04 06:39:57 51°13.716 2°52.315 22.4666 2.429131 15.89781 38.24614
2009-08-04 06:40:02 51°13.709 2°52.29 22.4704 2.42758 15.886702 38.280964
2009-08-04 06:40:07 51°13.702 2°52.265 22.4831 2.428717 15.894848 38.280964
2009-08-04 06:40:13 51°13.693 2°52.235 22.4853 2.428924 15.896606 38.280964
2009-08-04 06:40:17 51°13.687 2°52.215 22.4795 2.428201 15.891422 38.24614
2009-08-04 06:40:22 51°13.68 2°52.191 22.4763 2.428201 15.891422 38.24614
2009-08-04 06:40:27 51°13.673 2°52.166 22.4795 2.428614 15.894384 38.24614
2009-08-04 06:40:32 51°13.666 2°52.14 22.4987 2.429234 15.899105 38.280964
2009-08-04 06:40:37 51°13.659 2°52.115 22.4798 2.427994 15.890495 38.24614
2009-08-04 06:40:42 51°13.652 2°52.09 22.4842 2.428924 15.897437 38.24614
2009-08-04 06:40:47 51°13.645 2°52.065 22.4764 2.428407 15.893734 38.211316
2009-08-04 06:40:52 51°13.638 2°52.04 22.4783 2.428407 15.893734 38.211316
2009-08-04 06:40:57 51°13.631 2°52.015 22.4869 2.42789 15.890031 38.24614
2009-08-04 06:41:02 51°13.624 2°51.99 22.4795 2.428201 15.89253 38.24614
2009-08-04 06:41:07 51°13.617 2°51.966 22.478 2.427994 15.891049 38.211316
2009-08-04 06:41:12 51°13.609 2°51.941 22.4867 2.428201 15.89253 38.24614
2009-08-04 06:41:17 51°13.601 2°51.916 22.4984 2.429131 15.899195 38.24614
2009-08-04 06:41:22 51°13.593 2°51.891 22.4888 2.429131 15.899195 38.24614
2009-08-04 06:41:27 51°13.585 2°51.866 22.4779 2.428097 15.892066 38.211316
2009-08-04 06:41:32 51°13.578 2°51.841 22.4541 2.42789 15.890585 38.24614
2009-08-04 06:41:37 51°13.571 2°51.816 22.4772 2.42789 15.890308 38.280964
2009-08-04 06:41:42 51°13.565 2°51.792 22.4881 2.429441 15.901971 38.280964
2009-08-04 06:41:47 51°13.558 2°51.77 22.4965 2.428924 15.898822 38.280964
2009-08-04 06:41:53 51°13.551 2°51.744 22.498 2.428924 15.898822 38.280964
2009-08-04 06:41:57 51°13.547 2°51.727 22.4951 2.429338 15.902062 38.24614
2009-08-04 06:42:02 51°13.541 2°51.707 22.4956 2.429234 15.901599 38.24614
2009-08-04 06:42:07 51°13.535 2°51.687 22.5006 2.430371 15.909746 38.24614
2009-08-04 06:42:13 51°13.529 2°51.663 22.5116 2.430371 15.910301 38.24614
2009-08-04 06:42:17 51°13.524 2°51.648 22.4997 2.430888 15.914282 38.24614
2009-08-04 06:42:22 51°13.519 2°51.629 22.5006 2.430888 15.914282 38.24614
2009-08-04 06:42:27 51°13.515 2°51.61 22.5072 2.430475 15.911319 38.24614
2009-08-04 06:42:33 51°13.509 2°51.587 22.5129 2.430578 15.91206 38.24614
2009-08-04 06:42:37 51°13.505 2°51.573 22.4831 2.430578 15.912337 38.24614
2009-08-04 06:42:42 51°13.5 2°51.555 22.4865 2.430371 15.910856 38.24614
2009-08-04 06:42:47 51°13.496 2°51.537 22.4922 2.429648 15.90567 38.280964
2009-08-04 06:42:53 51°13.491 2°51.518 22.5031 2.429648 15.90567 38.280964
2009-08-04 06:42:57 51°13.487 2°51.506 22.513 2.430475 15.911874 38.24614
2009-08-04 06:43:02 51°13.483 2°51.492 22.5131 2.431818 15.92206 38.24614
2009-08-04 06:43:07 51°13.479 2°51.478 22.516 2.431715 15.921874 38.24614
2009-08-04 06:43:12 51°13.475 2°51.465 22.5152 2.432129 15.924838 38.24614
2009-08-04 06:43:17 51°13.471 2°51.453 22.519 2.431095 15.917706 38.24614
2009-08-04 06:43:22 51°13.467 2°51.443 22.5173 2.431095 15.917706 38.24614
2009-08-04 06:43:27 51°13.463 2°51.432 22.5058 2.431508 15.92067 38.211316
2009-08-04 06:43:32 51°13.458 2°51.423 22.4977 2.430578 15.914002 38.211316
2009-08-04 06:43:37 51°13.455 2°51.414 22.4926 2.429855 15.908261 38.211316
2009-08-04 06:43:42 51°13.451 2°51.405 22.4905 2.429131 15.902798 38.24614
2009-08-04 06:43:47 51°13.448 2°51.398 22.488 2.430165 15.909929 38.24614
2009-08-04 06:43:53 51°13.445 2°51.39 22.493 2.430165 15.909929 38.24614
2009-08-04 06:43:57 51°13.443 2°51.384 22.495 2.430268 15.91067 38.24614
2009-08-04 06:44:02 51°13.441 2°51.379 22.4957 2.430268 15.91067 38.211316
2009-08-04 06:44:07 51°13.44 2°51.374 22.5196 2.431818 15.92206 38.24614
2009-08-04 06:44:13 51°13.439 2°51.368 22.5053 2.431198 15.91817 38.211316
2009-08-04 06:44:17 51°13.438 2°51.365 22.5099 2.429028 15.902889 38.211316
2009-08-04 06:44:22 51°13.437 2°51.361 22.5085 2.429028 15.902889 38.211316
2009-08-04 06:44:27 51°13.436 2°51.358 22.5204 2.431819 15.923725 38.211316
2009-08-04 06:44:33 51°13.436 2°51.354 22.5145 2.432645 15.930208 38.211316
2009-08-04 06:44:37 51°13.435 2°51.352 22.5108 2.431095 15.919649 38.211316
2009-08-04 06:44:42 51°13.434 2°51.349 22.5 2.430682 15.916685 38.211316
2009-08-04 06:44:47 51°13.434 2°51.346 22.5183 2.431198 15.920112 38.176492
2009-08-04 06:44:53 51°13.434 2°51.342 22.5001 2.431198 15.920112 38.176492
2009-08-04 06:44:57 51°13.433 2°51.34 22.5161 2.431095 15.919927 38.211316
2009-08-04 06:45:02 51°13.433 2°51.338 22.5164 2.430475 15.915203 38.211316
2009-08-04 06:45:07 51°13.433 2°51.335 22.517 2.430992 15.919186 38.211316
2009-08-04 06:45:12 51°13.432 2°51.332 22.5159 2.431508 15.923168 38.211316
2009-08-04 06:45:17 51°13.432 2°51.33 22.5107 2.430785 15.917704 38.176492
2009-08-04 06:45:22 51°13.432 2°51.327 22.5119 2.430785 15.917704 38.176492
2009-08-04 06:45:27 51°13.431 2°51.325 22.5131 2.430888 15.918445 38.211316
2009-08-04 06:45:32 51°13.431 2°51.322 22.5179 2.431095 15.919927 38.176492
2009-08-04 06:45:37 51°13.431 2°51.32 22.5138 2.430682 15.916685 38.176492
2009-08-04 06:45:42 51°13.43 2°51.318 22.5149 2.430992 15.918908 38.176492
2009-08-04 06:45:47 51°13.43 2°51.316 22.526 2.430682 15.916685 38.176492
2009-08-04 06:45:52 51°13.43 2°51.313 22.5223 2.430682 15.916685 38.176492
2009-08-04 06:45:57 51°13.429 2°51.311 22.5193 2.431819 15.925114 38.176492
2009-08-04 06:46:02 51°13.429 2°51.309 22.5168 2.430888 15.918445 38.176492
2009-08-04 06:46:07 51°13.429 2°51.307 22.5195 2.430785 15.917981 38.176492
2009-08-04 06:46:13 51°13.428 2°51.304 22.5174 2.431198 15.921223 38.176492
2009-08-04 06:46:17 51°13.428 2°51.302 22.5187 2.430578 15.916777 38.176492
2009-08-04 06:46:22 51°13.428 2°51.3 22.5116 2.430578 15.916777 38.176492
2009-08-04 06:46:27 51°13.428 2°51.298 22.528 2.430888 15.919277 38.176492
2009-08-04 06:46:33 51°13.428 2°51.295 22.5251 2.431819 15.926224 38.176492
2009-08-04 06:46:37 51°13.427 2°51.293 22.5253 2.431198 15.921778 38.176492
2009-08-04 06:46:42 51°13.427 2°51.291 22.5208 2.430682 15.918073 38.176492
2009-08-04 06:46:47 51°13.427 2°51.289 22.5229 2.430785 15.918814 38.141668
2009-08-04 06:46:53 51°13.427 2°51.287 22.5235 2.430785 15.918814 38.141668
2009-08-04 06:46:57 51°13.427 2°51.285 22.5261 2.430992 15.920574 38.176492
2009-08-04 06:47:02 51°13.426 2°51.282 22.5237 2.430165 15.914645 38.176492
2009-08-04 06:47:07 51°13.426 2°51.28 22.5263 2.430578 15.91761 38.141668
2009-08-04 06:47:12 51°13.426 2°51.278 22.5277 2.430475 15.917146 38.141668
2009-08-04 06:47:17 51°13.425 2°51.276 22.5287 2.431095 15.92187 38.141668
2009-08-04 06:47:22 51°13.425 2°51.274 22.5251 2.431095 15.92187 38.141668
2009-08-04 06:47:27 51°13.425 2°51.272 22.5292 2.430578 15.918442 38.141668
2009-08-04 06:47:32 51°13.425 2°51.27 22.5201 2.430475 15.917701 38.141668
2009-08-04 06:47:37 51°13.425 2°51.267 22.5188 2.431095 15.922148 38.141668
2009-08-04 06:47:42 51°13.425 2°51.265 22.5346 2.431509 15.92539 38.141668
2009-08-04 06:47:47 51°13.424 2°51.263 22.5297 2.430475 15.917979 38.141668
2009-08-04 06:47:52 51°13.424 2°51.261 22.5287 2.430475 15.917979 38.141668
2009-08-04 06:47:57 51°13.424 2°51.259 22.5313 2.430268 15.916497 38.141668
2009-08-04 06:48:02 51°13.424 2°51.256 22.5343 2.430578 15.91872 38.106844
2009-08-04 06:48:07 51°13.423 2°51.254 22.5372 2.430785 15.920202 38.141668
2009-08-04 06:48:12 51°13.423 2°51.252 22.5387 2.430475 15.918257 38.106844
2009-08-04 06:48:17 51°13.423 2°51.25 22.5349 2.430682 15.919739 38.141668
2009-08-04 06:48:22 51°13.423 2°51.248 22.5364 2.430682 15.919739 38.141668
2009-08-04 06:48:27 51°13.422 2°51.246 22.5299 2.431198 15.923722 38.141668
2009-08-04 06:48:33 51°13.422 2°51.243 22.5363 2.430992 15.92224 38.106844
2009-08-04 06:48:37 51°13.422 2°51.241 22.5416 2.430682 15.920294 38.106844
2009-08-04 06:48:42 51°13.422 2°51.239 22.5333 2.430682 15.920294 38.106844
2009-08-04 06:48:47 51°13.422 2°51.237 22.5351 2.430578 15.919831 38.106844
2009-08-04 06:48:53 51°13.422 2°51.234 22.5397 2.430578 15.919831 38.106844
2009-08-04 06:48:57 51°13.421 2°51.233 22.5393 2.430268 15.917607 38.106844
2009-08-04 06:49:02 51°13.421 2°51.23 22.5449 2.430578 15.919831 38.106844
2009-08-04 06:49:07 51°13.421 2°51.228 22.5344 2.430371 15.918348 38.106844
2009-08-04 06:49:13 51°13.421 2°51.226 22.5461 2.430371 15.918348 38.106844
2009-08-04 06:49:17 51°13.421 2°51.224 22.5387 2.430682 15.920849 38.106844
2009-08-04 06:49:22 51°13.421 2°51.222 22.5438 2.430682 15.920849 38.106844
2009-08-04 06:49:27 51°13.42 2°51.22 22.5396 2.430475 15.919367 38.106844
2009-08-04 06:49:32 51°13.42 2°51.218 22.5419 2.429958 15.915661 38.106844
2009-08-04 06:49:37 51°13.42 2°51.216 22.5461 2.429855 15.91492 38.106844
2009-08-04 06:49:42 51°13.42 2°51.213 22.5395 2.430268 15.918163 38.106844
2009-08-04 06:49:47 51°13.42 2°51.211 22.5377 2.430372 15.919181 38.106844
2009-08-04 06:49:52 51°13.42 2°51.209 22.5443 2.430372 15.919181 38.106844
2009-08-04 06:49:57 51°13.419 2°51.207 22.3316 2.430268 15.91844 38.106844
2009-08-04 06:50:02 51°13.419 2°51.205 22.4387 2.423653 15.868799 38.24614
2009-08-04 06:50:07 51°13.419 2°51.203 22.5036 2.424376 15.872878 38.315788
2009-08-04 06:50:12 51°13.419 2°51.201 22.4969 2.42634 15.888339 38.350613
2009-08-04 06:50:17 51°13.419 2°51.199 22.478 2.434816 15.95022 38.315788
2009-08-04 06:50:22 51°13.419 2°51.197 22.4371 2.434816 15.95022 38.315788
2009-08-04 06:50:27 51°13.418 2°51.195 22.4438 2.443913 16.019661 38.176492
2009-08-04 06:50:32 51°13.418 2°51.193 22.4481 2.434196 15.948276 37.967548
2009-08-04 06:50:37 51°13.418 2°51.191 22.4513 2.43461 15.950407 37.932724
2009-08-04 06:50:42 51°13.418 2°51.189 22.4551 2.435437 15.95606 37.967548
2009-08-04 06:50:47 51°13.418 2°51.186 22.4566 2.43554 15.95708 37.967548
2009-08-04 06:50:53 51°13.417 2°51.184 22.4604 2.43554 15.95708 37.967548
2009-08-04 06:50:57 51°13.417 2°51.183 22.4613 2.43554 15.957358 37.967548
2009-08-04 06:51:02 51°13.417 2°51.18 22.4642 2.435333 15.955875 37.967548
2009-08-04 06:51:07 51°13.417 2°51.179 22.4654 2.43461 15.951242 37.967548
2009-08-04 06:51:13 51°13.417 2°51.176 22.469 2.432542 15.936137 37.967548
2009-08-04 06:51:17 51°13.416 2°51.174 22.4673 2.434506 15.950501 37.967548
2009-08-04 06:51:22 51°13.416 2°51.173 22.4718 2.434506 15.950501 37.967548
2009-08-04 06:51:27 51°13.416 2°51.17 22.4713 2.434816 15.952725 37.967548
2009-08-04 06:51:33 51°13.416 2°51.168 22.4737 2.433369 15.942067 37.967548
2009-08-04 06:51:37 51°13.416 2°51.167 22.4757 2.433989 15.947072 37.967548
2009-08-04 06:51:42 51°13.415 2°51.165 22.4774 2.432129 15.933727 37.932724
2009-08-04 06:51:47 51°13.415 2°51.162 22.4803 2.434196 15.948833 37.932724
2009-08-04 06:51:53 51°13.415 2°51.16 22.4807 2.434196 15.948833 37.932724
2009-08-04 06:51:57 51°13.415 2°51.159 22.4847 2.432956 15.940214 37.967548
2009-08-04 06:52:02 51°13.414 2°51.157 22.4864 2.434093 15.948648 37.932724
2009-08-04 06:52:07 51°13.414 2°51.155 22.4877 2.432852 15.940307 37.932724
2009-08-04 06:52:12 51°13.414 2°51.153 22.4868 2.432542 15.938361 37.8979
2009-08-04 06:52:17 51°13.414 2°51.151 22.4876 2.432336 15.937156 37.932724
2009-08-04 06:52:22 51°13.414 2°51.149 22.4897 2.432336 15.937156 37.932724
2009-08-04 06:52:27 51°13.413 2°51.147 22.4936 2.431509 15.931503 37.8979
2009-08-04 06:52:32 51°13.413 2°51.145 22.4925 2.433163 15.943366 37.8979
2009-08-04 06:52:37 51°13.413 2°51.143 22.4948 2.430992 15.927796 37.8979
2009-08-04 06:52:42 51°13.413 2°51.141 22.4981 2.431095 15.928815 37.8979
2009-08-04 06:52:47 51°13.413 2°51.139 22.4984 2.430888 15.927333 37.8979
2009-08-04 06:52:53 51°13.413 2°51.137 22.5012 2.430888 15.927333 37.8979
2009-08-04 06:52:57 51°13.412 2°51.135 22.5 2.432129 15.936508 37.8979
2009-08-04 06:53:02 51°13.412 2°51.134 22.5035 2.431612 15.933078 37.8979
2009-08-04 06:53:07 51°13.412 2°51.132 22.4943 2.431302 15.930854 37.863076
2009-08-04 06:53:13 51°13.412 2°51.129 22.5021 2.427684 15.903796 37.8979
2009-08-04 06:53:17 51°13.412 2°51.128 22.5045 2.430061 15.921124 37.863076
2009-08-04 06:53:22 51°13.412 2°51.126 22.5045 2.430061 15.921124 37.863076
2009-08-04 06:53:27 51°13.412 2°51.124 22.5105 2.429441 15.916398 37.863076
2009-08-04 06:53:33 51°13.412 2°51.122 22.5108 2.431922 15.934747 37.863076
2009-08-04 06:53:37 51°13.411 2°51.12 22.5075 2.430578 15.925386 37.863076
2009-08-04 06:53:42 51°13.411 2°51.118 22.5152 2.430268 15.922606 37.863076
2009-08-04 06:53:47 51°13.411 2°51.117 22.5121 2.430372 15.923626 37.828252
2009-08-04 06:53:53 51°13.411 2°51.114 22.517 2.430372 15.923626 37.828252
2009-08-04 06:53:57 51°13.411 2°51.113 22.512 2.429648 15.918436 37.828252
2009-08-04 06:54:02 51°13.411 2°51.111 22.5218 2.428924 15.912969 37.828252
2009-08-04 06:54:07 51°13.411 2°51.109 22.5176 2.430062 15.921679 37.828252
2009-08-04 06:54:12 51°13.411 2°51.107 22.524 2.429855 15.920197 37.828252
2009-08-04 06:54:17 51°13.41 2°51.105 22.5229 2.428821 15.913061 37.828252
2009-08-04 06:54:22 51°13.41 2°51.104 22.5257 2.428821 15.913061 37.828252
2009-08-04 06:54:27 51°13.41 2°51.102 22.5282 2.429235 15.916304 37.793428
2009-08-04 06:54:32 51°13.41 2°51.1 22.528 2.429235 15.916582 37.793428
2009-08-04 06:54:37 51°13.41 2°51.098 22.5316 2.429855 15.921308 37.793428
2009-08-04 06:54:42 51°13.41 2°51.096 22.5347 2.429338 15.917879 37.793428
2009-08-04 06:54:47 51°13.41 2°51.094 22.5317 2.429235 15.917415 37.793428
2009-08-04 06:54:52 51°13.41 2°51.093 22.5293 2.429235 15.917415 37.793428
2009-08-04 06:54:57 51°13.409 2°51.091 22.5289 2.428201 15.909446 37.793428
2009-08-04 06:55:02 51°13.409 2°51.089 22.5376 2.428201 15.909446 37.793428
2009-08-04 06:55:07 51°13.409 2°51.087 22.535 2.429648 15.920103 37.793428
2009-08-04 06:55:13 51°13.409 2°51.085 22.534 2.428718 15.91343 37.793428
2009-08-04 06:55:17 51°13.409 2°51.083 22.5445 2.428925 15.914913 37.793428
2009-08-04 06:55:22 51°13.409 2°51.081 22.5444 2.428925 15.914913 37.793428
2009-08-04 06:55:27 51°13.409 2°51.079 22.5369 2.429648 15.920659 37.793428
2009-08-04 06:55:33 51°13.409 2°51.077 22.5489 2.427787 15.907036 37.758604
2009-08-04 06:55:37 51°13.409 2°51.075 22.5495 2.429441 15.919176 37.758604
2009-08-04 06:55:42 51°13.409 2°51.074 22.553 2.429855 15.922142 37.758604
2009-08-04 06:55:47 51°13.408 2°51.072 22.5561 2.430578 15.927888 37.758604
2009-08-04 06:55:53 51°13.408 2°51.069 22.5536 2.430578 15.927888 37.758604
2009-08-04 06:55:57 51°13.408 2°51.068 22.5606 2.429338 15.919268 37.758604
2009-08-04 06:56:02 51°13.408 2°51.066 22.5616 2.431612 15.936138 37.758604
2009-08-04 06:56:07 51°13.408 2°51.064 22.5579 2.430889 15.931225 37.758604
2009-08-04 06:56:13 51°13.408 2°51.062 22.558 2.428304 15.912131 37.758604
2009-08-04 06:56:17 51°13.408 2°51.06 22.5666 2.431199 15.933449 37.758604
2009-08-04 06:56:22 51°13.408 2°51.059 22.5607 2.431199 15.933449 37.758604
2009-08-04 06:56:27 51°13.408 2°51.057 22.5719 2.429131 15.918896 37.72378
2009-08-04 06:56:32 51°13.408 2°51.055 22.5607 2.430785 15.930761 37.72378
2009-08-04 06:56:37 51°13.408 2°51.053 22.5702 2.429855 15.924087 37.72378
2009-08-04 06:56:42 51°13.408 2°51.051 22.5769 2.429441 15.921399 37.72378
2009-08-04 06:56:47 51°13.408 2°51.05 22.5758 2.430165 15.927146 37.72378
2009-08-04 06:56:52 51°13.408 2°51.048 22.5723 2.430165 15.927146 37.72378
2009-08-04 06:56:57 51°13.408 2°51.046 22.5722 2.428408 15.914261 37.72378
2009-08-04 06:57:02 51°13.408 2°51.044 22.5807 2.428304 15.913242 37.72378
2009-08-04 06:57:07 51°13.408 2°51.043 22.5804 2.430165 15.926868 37.688955
2009-08-04 06:57:12 51°13.408 2°51.041 22.5782 2.428304 15.913242 37.688955
2009-08-04 06:57:17 51°13.408 2°51.039 22.5765 2.428821 15.916949 37.688955
2009-08-04 06:57:22 51°13.408 2°51.037 22.5891 2.428821 15.916949 37.688955
2009-08-04 06:57:27 51°13.408 2°51.036 22.5857 2.430372 15.928351 37.688955
2009-08-04 06:57:33 51°13.408 2°51.033 22.5856 2.428511 15.914725 37.688955
2009-08-04 06:57:37 51°13.408 2°51.032 22.5848 2.427891 15.910554 37.688955
2009-08-04 06:57:42 51°13.408 2°51.03 22.5849 2.428201 15.912778 37.688955
2009-08-04 06:57:47 51°13.408 2°51.028 22.5951 2.428718 15.916764 37.654131
2009-08-04 06:57:53 51°13.407 2°51.026 22.5938 2.428718 15.916764 37.654131
2009-08-04 06:57:57 51°13.407 2°51.025 22.602 2.427684 15.909626 37.688955
2009-08-04 06:58:02 51°13.407 2°51.023 22.5976 2.429648 15.92455 37.688955
2009-08-04 06:58:07 51°13.407 2°51.021 22.5955 2.427891 15.911665 37.688955
2009-08-04 06:58:13 51°13.407 2°51.019 22.6057 2.429235 15.921583 37.654131
2009-08-04 06:58:17 51°13.407 2°51.018 22.6025 2.428098 15.913426 37.654131
2009-08-04 06:58:22 51°13.407 2°51.016 22.5985 2.428098 15.913426 37.654131
2009-08-04 06:58:27 51°13.407 2°51.015 22.6051 2.427477 15.908421 37.654131
2009-08-04 06:58:33 51°13.407 2°51.013 22.6083 2.428098 15.913148 37.654131
2009-08-04 06:58:37 51°13.407 2°51.011 22.6152 2.428615 15.917133 37.619307
2009-08-04 06:58:42 51°13.407 2°51.01 22.611 2.427684 15.910459 37.654131
2009-08-04 06:58:47 51°13.407 2°51.008 22.6187 2.428615 15.917133 37.619307
2009-08-04 06:58:52 51°13.407 2°51.006 22.6141 2.428615 15.917133 37.619307
2009-08-04 06:58:57 51°13.407 2°51.004 22.623 2.427477 15.909254 37.619307
2009-08-04 06:59:02 51°13.407 2°51.001 22.6237 2.428925 15.919914 37.619307
2009-08-04 06:59:07 51°13.407 2°50.998 22.6264 2.428615 15.918245 37.619307
2009-08-04 06:59:12 51°13.407 2°50.994 22.6294 2.428925 15.92047 37.619307
2009-08-04 06:59:17 51°13.406 2°50.99 22.6305 2.430579 15.933172 37.584483
2009-08-04 06:59:22 51°13.406 2°50.986 22.6325 2.430579 15.933172 37.584483
2009-08-04 06:59:27 51°13.405 2°50.981 22.6376 2.428925 15.921304 37.584483
2009-08-04 06:59:32 51°13.404 2°50.976 22.6313 2.430682 15.93447 37.619307
2009-08-04 06:59:37 51°13.403 2°50.971 22.6415 2.430889 15.935953 37.584483
2009-08-04 06:59:42 51°13.402 2°50.966 22.6411 2.430992 15.937252 37.584483
2009-08-04 06:59:47 51°13.4 2°50.96 22.6414 2.431405 15.940498 37.584483
2009-08-04 06:59:53 51°13.398 2°50.954 22.6433 2.431405 15.940498 37.584483
2009-08-04 06:59:57 51°13.397 2°50.949 22.6416 2.431405 15.940219 37.584483
2009-08-04 07:00:02 51°13.395 2°50.944 22.6483 2.430889 15.93651 37.584483
2009-08-04 07:00:07 51°13.392 2°50.939 22.6532 2.431199 15.939014 37.549659
2009-08-04 07:00:13 51°13.389 2°50.932 22.6543 2.430785 15.936325 37.549659
2009-08-04 07:00:17 51°13.386 2°50.928 22.6535 2.431612 15.94226 37.549659
2009-08-04 07:00:22 51°13.383 2°50.924 22.6557 2.431612 15.94226 37.549659
2009-08-04 07:00:27 51°13.379 2°50.919 22.6593 2.432543 15.949494 37.549659
2009-08-04 07:00:33 51°13.374 2°50.915 22.6617 2.432956 15.952462 37.549659
2009-08-04 07:00:37 51°13.371 2°50.912 22.6641 2.433576 15.957192 37.549659
2009-08-04 07:00:42 51°13.366 2°50.909 22.6642 2.433473 15.957007 37.549659
2009-08-04 07:00:47 51°13.362 2°50.907 22.6681 2.433059 15.953761 37.549659
2009-08-04 07:00:52 51°13.357 2°50.905 22.6678 2.433059 15.953761 37.549659
2009-08-04 07:00:57 51°13.353 2°50.904 22.6668 2.433266 15.955245 37.549659
2009-08-04 07:01:03 51°13.347 2°50.904 22.6745 2.432439 15.94903 37.549659
2009-08-04 07:01:08 51°13.343 2°50.904 22.6732 2.433369 15.955987 37.514835
2009-08-04 07:01:14 51°13.338 2°50.905 22.6758 2.433059 15.953761 37.514835
2009-08-04 07:01:18 51°13.334 2°50.907 22.6758 2.432336 15.948567 37.514835
2009-08-04 07:01:23 51°13.33 2°50.909 22.6739 2.432232 15.947825 37.514835
2009-08-04 07:01:28 51°13.327 2°50.912 22.6758 2.432232 15.947825 37.514835
2009-08-04 07:01:33 51°13.324 2°50.916 22.6873 2.432232 15.947825 37.514835
2009-08-04 07:01:38 51°13.321 2°50.919 22.6808 2.432956 15.953297 37.514835
2009-08-04 07:01:43 51°13.318 2°50.924 22.6811 2.428718 15.922045 37.514835
2009-08-04 07:01:48 51°13.316 2°50.929 22.6826 2.427271 15.911382 37.480011
2009-08-04 07:01:54 51°13.312 2°50.936 22.6702 2.42541 15.897199 37.480011
2009-08-04 07:01:58 51°13.311 2°50.941 22.659 2.42541 15.897199 37.480011
2009-08-04 07:02:04 51°13.307 2°50.949 22.6287 2.423963 15.885707 37.480011
2009-08-04 07:02:08 51°13.304 2°50.955 22.6123 2.425307 15.894514 37.514835
2009-08-04 07:02:14 51°13.299 2°50.963 22.6212 2.426134 15.900169 37.514835
2009-08-04 07:02:18 51°13.296 2°50.967 22.6236 2.429028 15.92149 37.549659
2009-08-04 07:02:24 51°13.29 2°50.972 22.6326 2.430475 15.932986 37.549659
2009-08-04 07:02:29 51°13.286 2°50.975 22.6383 2.430785 15.936325 37.514835
2009-08-04 07:02:34 51°13.281 2°50.978 22.6423 2.430785 15.936325 37.514835
2009-08-04 07:02:38 51°13.277 2°50.979 22.6477 2.430268 15.93345 37.514835
2009-08-04 07:02:43 51°13.272 2°50.98 22.65 2.431509 15.943745 37.514835
2009-08-04 07:02:49 51°13.267 2°50.981 22.6509 2.431612 15.945323 37.514835
2009-08-04 07:02:54 51°13.262 2°50.981 22.6568 2.431095 15.94217 37.480011
2009-08-04 07:02:58 51°13.259 2°50.981 22.6606 2.432233 15.950889 37.480011
2009-08-04 07:03:03 51°13.254 2°50.98 22.6639 2.432233 15.950889 37.480011
2009-08-04 07:03:08 51°13.25 2°50.979 22.6623 2.432646 15.954136 37.480011
2009-08-04 07:03:14 51°13.245 2°50.977 22.6697 2.43461 15.968795 37.445187
2009-08-04 07:03:18 51°13.242 2°50.976 22.6728 2.430992 15.942263 37.480011
2009-08-04 07:03:23 51°13.238 2°50.974 22.6759 2.434196 15.96499 37.480011
2009-08-04 07:03:28 51°13.234 2°50.972 22.6769 2.434196 15.96499 37.480011
2009-08-04 07:03:33 51°13.23 2°50.969 22.68 2.432853 15.955063 37.445187
2009-08-04 07:03:38 51°13.227 2°50.966 22.6833 2.434507 15.967774 37.445187
2009-08-04 07:03:43 51°13.224 2°50.964 22.6882 2.434817 15.969722 37.445187
2009-08-04 07:03:48 51°13.222 2°50.961 22.6887 2.432956 15.956084 37.445187
2009-08-04 07:03:53 51°13.219 2°50.959 22.691 2.436264 15.980672 37.445187
2009-08-04 07:03:58 51°13.218 2°50.956 22.6923 2.436264 15.980672 37.445187
2009-08-04 07:04:04 51°13.216 2°50.954 22.6977 2.438021 15.994129 37.445187
2009-08-04 07:04:08 51°13.215 2°50.952 22.6993 2.437711 15.991623 37.410363
2009-08-04 07:04:14 51°13.214 2°50.949 22.7 2.434507 15.96889 37.410363
2009-08-04 07:04:18 51°13.213 2°50.948 22.7073 2.434817 15.970559 37.410363
2009-08-04 07:04:24 51°13.213 2°50.946 22.7088 2.437814 15.992924 37.410363
2009-08-04 07:04:29 51°13.212 2°50.944 22.711 2.437608 15.991998 37.410363
2009-08-04 07:04:34 51°13.211 2°50.943 22.713 2.437608 15.991998 37.410363
2009-08-04 07:04:38 51°13.211 2°50.941 22.7126 2.438538 15.99868 37.375539
2009-08-04 07:04:44 51°13.21 2°50.939 22.7153 2.438228 15.996453 37.375539
2009-08-04 07:04:49 51°13.21 2°50.937 22.7193 2.439468 16.005921 37.375539
2009-08-04 07:04:54 51°13.209 2°50.935 22.7208 2.439055 16.002951 37.375539
2009-08-04 07:04:58 51°13.209 2°50.934 22.7252 2.439055 16.002951 37.375539
2009-08-04 07:05:04 51°13.209 2°50.932 22.7261 2.437298 15.99005 37.375539
2009-08-04 07:05:09 51°13.208 2°50.93 22.7263 2.437608 15.992557 37.340715
2009-08-04 07:05:14 51°13.208 2°50.928 22.7317 2.437401 15.990792 37.340715
2009-08-04 07:05:18 51°13.207 2°50.927 22.7332 2.437918 15.994784 37.340715
2009-08-04 07:05:23 51°13.207 2°50.925 22.7379 2.437194 15.989308 37.340715
2009-08-04 07:05:28 51°13.207 2°50.923 22.7393 2.437194 15.989308 37.340715
2009-08-04 07:05:34 51°13.206 2°50.921 22.7431 2.436884 15.986801 37.305891
2009-08-04 07:05:38 51°13.206 2°50.92 22.7453 2.436471 15.984111 37.305891
2009-08-04 07:05:43 51°13.205 2°50.918 22.7478 2.435437 15.976408 37.340715
2009-08-04 07:05:48 51°13.205 2°50.916 22.7509 2.43523 15.974923 37.340715
2009-08-04 07:05:53 51°13.205 2°50.914 22.7495 2.431922 15.951171 37.340715
2009-08-04 07:05:58 51°13.205 2°50.912 22.7578 2.435127 15.974181 37.305891
2009-08-04 07:06:03 51°13.205 2°50.91 22.7584 2.435127 15.974181 37.305891
2009-08-04 07:06:08 51°13.204 2°50.909 22.7595 2.435127 15.974739 37.305891
2009-08-04 07:06:14 51°13.204 2°50.906 22.7615 2.43523 15.975761 37.305891
2009-08-04 07:06:18 51°13.203 2°50.905 22.7657 2.436367 15.984486 37.305891
2009-08-04 07:06:24 51°13.203 2°50.903 22.7681 2.436367 15.984486 37.305891
2009-08-04 07:06:28 51°13.203 2°50.901 22.7686 2.434403 15.97038 37.305891
2009-08-04 07:06:34 51°13.202 2°50.899 22.7692 2.434403 15.97038 37.305891
2009-08-04 07:06:38 51°13.202 2°50.898 22.7755 2.43306 15.960172 37.305891
2009-08-04 07:06:44 51°13.202 2°50.895 22.777 2.434507 15.970564 37.271067
2009-08-04 07:06:49 51°13.202 2°50.893 22.7828 2.43399 15.966853 37.305891
2009-08-04 07:06:54 51°13.201 2°50.891 22.7846 2.436057 15.982258 37.305891
2009-08-04 07:06:58 51°13.201 2°50.89 22.7857 2.436057 15.982258 37.305891
2009-08-04 07:07:03 51°13.201 2°50.888 22.7887 2.435644 15.979568 37.271067
2009-08-04 07:07:09 51°13.201 2°50.886 22.7896 2.433783 15.966205 37.271067
2009-08-04 07:07:14 51°13.201 2°50.883 22.793 2.4343 15.969917 37.271067
2009-08-04 07:07:18 51°13.2 2°50.882 22.7978 2.435644 15.979568 37.271067
2009-08-04 07:07:23 51°13.2 2°50.88 22.8001 2.438538 16.001476 37.271067
2009-08-04 07:07:29 51°13.2 2°50.878 22.7997 2.433266 15.96333 37.271067
2009-08-04 07:07:34 51°13.2 2°50.876 22.8017 2.433266 15.96333 37.271067
2009-08-04 07:07:38 51°13.199 2°50.874 22.8025 2.4343 15.970196 37.271067
2009-08-04 07:07:43 51°13.199 2°50.872 22.8043 2.43461 15.972702 37.271067
2009-08-04 07:07:48 51°13.199 2°50.87 22.8128 2.434817 15.974187 37.271067
2009-08-04 07:07:54 51°13.199 2°50.868 22.8104 2.43461 15.972981 37.236243
2009-08-04 07:07:58 51°13.199 2°50.867 22.8146 2.43337 15.964072 37.271067
2009-08-04 07:08:03 51°13.199 2°50.865 22.8201 2.43337 15.964072 37.271067
2009-08-04 07:08:08 51°13.198 2°50.863 22.8214 2.43554 15.979663 37.271067
2009-08-04 07:08:13 51°13.198 2°50.861 22.8211 2.434817 15.974745 37.271067
2009-08-04 07:08:18 51°13.198 2°50.859 22.8238 2.432129 15.955164 37.271067
2009-08-04 07:08:23 51°13.198 2°50.857 22.8246 2.431819 15.952659 37.236243
2009-08-04 07:08:28 51°13.197 2°50.855 22.8315 2.431819 15.952659 37.236243
2009-08-04 07:08:34 51°13.197 2°50.853 22.8342 2.43368 15.966021 37.236243
2009-08-04 07:08:38 51°13.197 2°50.851 22.8343 2.435747 15.981707 37.236243
2009-08-04 07:08:44 51°13.197 2°50.849 22.8369 2.435334 15.979016 37.236243
2009-08-04 07:08:48 51°13.197 2°50.847 22.8376 2.43337 15.96463 37.236243
2009-08-04 07:08:54 51°13.196 2°50.845 22.8389 2.434093 15.970106 37.236243
2009-08-04 07:08:58 51°13.196 2°50.844 22.8417 2.434093 15.970106 37.236243
2009-08-04 07:09:03 51°13.196 2°50.842 22.8443 2.43337 15.964909 37.236243
2009-08-04 07:09:09 51°13.196 2°50.839 22.8484 2.434197 15.970849 37.236243
2009-08-04 07:09:14 51°13.196 2°50.838 22.8506 2.43492 15.976325 37.236243
2009-08-04 07:09:18 51°13.195 2°50.836 22.853 2.436367 15.987 37.236243
2009-08-04 07:09:23 51°13.195 2°50.834 22.8493 2.431509 15.951825 37.201419
2009-08-04 07:09:29 51°13.195 2°50.832 22.8604 2.434403 15.972892 37.236243
2009-08-04 07:09:34 51°13.195 2°50.83 22.8635 2.434403 15.972892 37.236243
2009-08-04 07:09:38 51°13.194 2°50.828 22.8638 2.434817 15.975862 37.201419
2009-08-04 07:09:43 51°13.194 2°50.826 22.8627 2.433163 15.964262 37.201419
2009-08-04 07:09:48 51°13.194 2°50.824 22.8649 2.433783 15.968716 37.201419
2009-08-04 07:09:54 51°13.194 2°50.822 22.8695 2.434093 15.970944 37.201419
2009-08-04 07:09:58 51°13.194 2°50.821 22.8764 2.437298 15.994801 37.201419
2009-08-04 07:10:03 51°13.194 2°50.819 22.875 2.437298 15.994801 37.201419
2009-08-04 07:10:08 51°13.193 2°50.817 22.8761 2.434507 15.974751 37.201419
2009-08-04 07:10:13 51°13.193 2°50.816 22.8821 2.435644 15.983199 37.201419
2009-08-04 07:10:18 51°13.193 2°50.814 22.8869 2.436471 15.989699 37.201419
2009-08-04 07:10:23 51°13.193 2°50.812 22.8907 2.437815 15.999913 37.201419
2009-08-04 07:10:28 51°13.193 2°50.809 22.8937 2.437815 15.999913 37.201419
2009-08-04 07:10:33 51°13.193 2°50.806 22.8946 2.436264 15.989052 37.166595
2009-08-04 07:10:38 51°13.193 2°50.803 22.9062 2.434714 15.977633 37.166595
2009-08-04 07:10:43 51°13.193 2°50.799 22.9082 2.437815 16.000193 37.166595
2009-08-04 07:10:48 51°13.193 2°50.795 22.9236 2.437504 15.998244 37.166595
2009-08-04 07:10:54 51°13.193 2°50.789 22.9253 2.437608 15.998987 37.166595
2009-08-04 07:10:58 51°13.193 2°50.784 22.9324 2.437608 15.998987 37.166595
2009-08-04 07:11:04 51°13.192 2°50.777 22.9416 2.436367 15.990074 37.166595
2009-08-04 07:11:08 51°13.192 2°50.772 22.9548 2.437091 15.995553 37.166595
2009-08-04 07:11:14 51°13.191 2°50.764 22.9602 2.437608 15.999266 37.166595
2009-08-04 07:11:18 51°13.191 2°50.759 22.9739 2.435437 15.98339 37.131771
2009-08-04 07:11:24 51°13.19 2°50.749 22.9731 2.433473 15.969001 37.131771
2009-08-04 07:11:29 51°13.188 2°50.741 22.9699 2.432956 15.96473 37.131771
2009-08-04 07:11:34 51°13.186 2°50.731 22.969 2.432956 15.96473 37.131771
2009-08-04 07:11:38 51°13.185 2°50.723 22.9685 2.433163 15.966215 37.131771
2009-08-04 07:11:43 51°13.182 2°50.711 22.966 2.431612 15.954799 37.131771
2009-08-04 07:11:49 51°13.179 2°50.697 22.9629 2.430889 15.949323 37.131771
2009-08-04 07:11:54 51°13.176 2°50.684 22.9745 2.431819 15.955726 37.131771
2009-08-04 07:11:58 51°13.174 2°50.673 22.9692 2.431819 15.955726 37.131771
2009-08-04 07:12:03 51°13.17 2°50.659 22.9679 2.430372 15.945611 37.096947
2009-08-04 07:12:08 51°13.166 2°50.643 22.978 2.430475 15.946353 37.131771
2009-08-04 07:12:14 51°13.161 2°50.625 22.9859 2.432233 15.959532 37.096947
2009-08-04 07:12:18 51°13.157 2°50.612 22.9782 2.432439 15.961575 37.096947
2009-08-04 07:12:23 51°13.152 2°50.596 22.9961 2.431509 15.954893 37.096947
2009-08-04 07:12:28 51°13.146 2°50.579 22.9931 2.431509 15.954893 37.096947
2009-08-04 07:12:33 51°13.14 2°50.562 22.9908 2.432026 15.958884 37.096947
2009-08-04 07:12:38 51°13.134 2°50.544 22.9806 2.429959 15.943756 37.096947
2009-08-04 07:12:43 51°13.127 2°50.525 23.0058 2.426961 15.921392 37.096947
2009-08-04 07:12:48 51°13.119 2°50.505 22.9919 2.426961 15.921392 37.096947
2009-08-04 07:12:53 51°13.112 2°50.486 22.9871 2.426134 15.914897 37.096947
2009-08-04 07:12:58 51°13.103 2°50.465 22.9852 2.424687 15.90395 37.096947
2009-08-04 07:13:04 51°13.093 2°50.44 22.9908 2.424687 15.90395 37.096947
2009-08-04 07:13:08 51°13.086 2°50.423 22.9993 2.423447 15.894767 37.096947
2009-08-04 07:13:14 51°13.076 2°50.398 22.9867 2.423033 15.891521 37.096947
2009-08-04 07:13:18 51°13.069 2°50.381 22.9899 2.421999 15.883545 37.062123
2009-08-04 07:13:24 51°13.058 2°50.355 22.9702 2.421276 15.878351 37.096947
2009-08-04 07:13:29 51°13.049 2°50.333 22.9684 2.422103 15.884287 37.096947
2009-08-04 07:13:34 51°13.04 2°50.311 22.9586 2.422103 15.884287 37.096947
2009-08-04 07:13:38 51°13.032 2°50.294 22.9595 2.421896 15.883358 37.096947
2009-08-04 07:13:43 51°13.023 2°50.272 22.9787 2.422826 15.890037 37.062123
2009-08-04 07:13:49 51°13.013 2°50.245 22.9758 2.421793 15.882894 37.096947
2009-08-04 07:13:54 51°13.004 2°50.222 23.0031 2.4251 15.907475 37.062123
2009-08-04 07:13:58 51°12.997 2°50.204 22.9995 2.4251 15.907475 37.062123
2009-08-04 07:14:03 51°12.988 2°50.182 23.0143 2.424273 15.902371 37.096947
2009-08-04 07:14:09 51°12.978 2°50.155 23.0059 2.424584 15.905154 37.062123
2009-08-04 07:14:14 51°12.969 2°50.133 22.9918 2.423653 15.898196 37.062123
2009-08-04 07:14:18 51°12.962 2°50.114 23.0177 2.424997 15.907845 37.062123
2009-08-04 07:14:23 51°12.953 2°50.092 23.0108 2.423343 15.896247 37.062123
2009-08-04 07:14:28 51°12.944 2°50.069 23.0153 2.423343 15.896247 37.062123
2009-08-04 07:14:34 51°12.933 2°50.042 23.0144 2.42386 15.900514 37.062123
2009-08-04 07:14:38 51°12.926 2°50.024 23.021 2.424067 15.901443 37.062123
2009-08-04 07:14:43 51°12.918 2°50.001 23.0315 2.423757 15.899494 37.062123
2009-08-04 07:14:48 51°12.909 2°49.979 23.0316 2.423963 15.901535 37.062123
2009-08-04 07:14:54 51°12.899 2°49.951 23.03 2.424687 15.907009 37.062123
2009-08-04 07:14:58 51°12.892 2°49.933 23.0323 2.424067 15.902833 37.062123
2009-08-04 07:15:03 51°12.884 2°49.91 23.0341 2.424067 15.902833 37.062123
2009-08-04 07:15:08 51°12.876 2°49.887 23.0434 2.423963 15.902091 37.062123
2009-08-04 07:15:14 51°12.865 2°49.859 23.037 2.423963 15.902369 37.062123
2009-08-04 07:15:18 51°12.859 2°49.841 23.05 2.42293 15.89439 37.027298
2009-08-04 07:15:24 51°12.849 2°49.813 23.0479 2.4251 15.910534 37.062123
2009-08-04 07:15:28 51°12.842 2°49.795 23.0478 2.42386 15.901348 37.062123
2009-08-04 07:15:34 51°12.832 2°49.768 23.041 2.42386 15.901348 37.062123
2009-08-04 07:15:38 51°12.825 2°49.75 23.0442 2.42324 15.896895 37.027298
2009-08-04 07:15:44 51°12.814 2°49.723 23.0425 2.422413 15.891235 37.027298
2009-08-04 07:15:49 51°12.806 2°49.7 23.061 2.42355 15.899121 37.027298
2009-08-04 07:15:54 51°12.797 2°49.677 23.0618 2.424584 15.9071 37.027298
2009-08-04 07:15:58 51°12.791 2°49.659 23.0611 2.424584 15.9071 37.027298
2009-08-04 07:16:03 51°12.783 2°49.635 23.0637 2.424274 15.905152 37.027298
2009-08-04 07:16:09 51°12.773 2°49.608 23.0631 2.423757 15.90144 37.027298
2009-08-04 07:16:14 51°12.764 2°49.585 23.0566 2.423343 15.898193 37.062123
2009-08-04 07:16:18 51°12.757 2°49.566 23.0717 2.42324 15.897451 37.027298
2009-08-04 07:16:23 51°12.749 2°49.543 23.073 2.422516 15.89281 37.027298
2009-08-04 07:16:28 51°12.741 2°49.52 23.0569 2.422516 15.89281 37.027298
2009-08-04 07:16:34 51°12.73 2°49.493 23.0834 2.422103 15.889286 37.027298
2009-08-04 07:16:38 51°12.723 2°49.474 23.078 2.42386 15.902738 37.027298
2009-08-04 07:16:43 51°12.715 2°49.451 23.0823 2.42231 15.891326 37.027298
2009-08-04 07:16:48 51°12.707 2°49.427 23.096 2.423757 15.901718 37.027298
2009-08-04 07:16:54 51°12.697 2°49.4 23.0778 2.423963 15.904037 37.027298
2009-08-04 07:16:58 51°12.69 2°49.382 23.0647 2.420759 15.880192 37.027298
2009-08-04 07:17:03 51°12.681 2°49.359 23.0656 2.420759 15.880192 37.027298
2009-08-04 07:17:08 51°12.673 2°49.335 23.0846 2.422516 15.89281 37.027298
2009-08-04 07:17:13 51°12.665 2°49.312 23.102 2.422826 15.895315 37.027298
2009-08-04 07:17:18 51°12.656 2°49.29 23.1031 2.42479 15.910532 37.027298
2009-08-04 07:17:23 51°12.647 2°49.267 23.1004 2.423963 15.904593 37.027298
2009-08-04 07:17:28 51°12.639 2°49.244 23.1042 2.423963 15.904593 37.027298
2009-08-04 07:17:34 51°12.628 2°49.217 23.0844 2.424274 15.907098 37.027298
2009-08-04 07:17:38 51°12.621 2°49.199 23.1021 2.422103 15.890953 37.027298
2009-08-04 07:17:44 51°12.611 2°49.172 23.1075 2.42417 15.9058 37.027298
2009-08-04 07:17:48 51°12.604 2°49.153 23.0948 2.42262 15.894664 37.027298
2009-08-04 07:17:54 51°12.594 2°49.126 23.0989 2.42355 15.901624 37.027298
2009-08-04 07:17:58 51°12.587 2°49.107 23.0943 2.42355 15.901624 37.027298
2009-08-04 07:18:04 51°12.577 2°49.08 23.1063 2.422 15.890488 37.027298
2009-08-04 07:18:09 51°12.569 2°49.056 23.1249 2.422103 15.891231 37.027298
2009-08-04 07:18:14 51°12.561 2°49.033 23.1291 2.423447 15.901437 37.027298
2009-08-04 07:18:18 51°12.554 2°49.014 23.1297 2.423447 15.901715 37.027298
2009-08-04 07:18:23 51°12.546 2°48.99 23.1213 2.423137 15.899766 37.027298
2009-08-04 07:18:29 51°12.537 2°48.963 23.1235 2.42231 15.893549 37.027298
2009-08-04 07:18:34 51°12.528 2°48.939 23.1191 2.42231 15.893549 37.027298
2009-08-04 07:18:38 51°12.522 2°48.921 23.1135 2.42231 15.893549 37.027298
2009-08-04 07:18:43 51°12.513 2°48.898 23.1465 2.421586 15.888075 37.027298
2009-08-04 07:18:48 51°12.505 2°48.875 23.1277 2.42355 15.903014 37.027298
2009-08-04 07:18:54 51°12.494 2°48.848 23.1559 2.424067 15.907004 37.027298
2009-08-04 07:18:58 51°12.487 2°48.83 23.1182 2.422 15.891878 37.027298
2009-08-04 07:19:03 51°12.479 2°48.807 23.1615 2.422 15.891878 37.027298
2009-08-04 07:19:08 51°12.471 2°48.783 23.1442 2.425514 15.917956 37.027298
2009-08-04 07:19:14 51°12.461 2°48.756 23.1386 2.422413 15.895403 37.027298
2009-08-04 07:19:18 51°12.454 2°48.738 23.1385 2.42293 15.899115 37.027298
2009-08-04 07:19:23 51°12.445 2°48.714 23.1724 2.424584 15.910995 37.027298
2009-08-04 07:19:28 51°12.437 2°48.691 23.1599 2.424584 15.910995 37.027298
2009-08-04 07:19:33 51°12.429 2°48.668 23.1734 2.423343 15.902641 36.992474
2009-08-04 07:19:38 51°12.42 2°48.645 23.1717 2.424997 15.9148 37.027298
2009-08-04 07:19:43 51°12.412 2°48.622 23.1651 2.425204 15.916564 36.992474
2009-08-04 07:19:48 51°12.404 2°48.599 23.187 2.42448 15.911366 37.027298
2009-08-04 07:19:54 51°12.393 2°48.572 23.1716 2.422413 15.896515 37.027298
2009-08-04 07:19:58 51°12.386 2°48.554 23.1697 2.422723 15.898465 36.992474
2009-08-04 07:20:04 51°12.376 2°48.527 23.1825 2.422723 15.898465 36.992474
2009-08-04 07:20:08 51°12.369 2°48.509 23.1841 2.423757 15.906446 37.027298
2009-08-04 07:20:14 51°12.358 2°48.482 23.1546 2.423757 15.906446 36.992474
2009-08-04 07:20:18 51°12.351 2°48.464 23.1916 2.42324 15.902455 37.027298
2009-08-04 07:20:23 51°12.342 2°48.441 23.1862 2.42355 15.904961 37.027298
2009-08-04 07:20:29 51°12.332 2°48.414 23.1935 2.423447 15.904218 37.027298
2009-08-04 07:20:34 51°12.323 2°48.392 23.1947 2.423447 15.904218 37.027298
2009-08-04 07:20:38 51°12.316 2°48.374 23.1987 2.423447 15.904497 37.027298
2009-08-04 07:20:43 51°12.307 2°48.352 23.2069 2.424067 15.90923 37.027298
2009-08-04 07:20:49 51°12.296 2°48.325 23.2201 2.425101 15.916935 36.992474
2009-08-04 07:20:54 51°12.288 2°48.302 23.2012 2.42386 15.908023 37.027298
2009-08-04 07:20:58 51°12.281 2°48.284 23.188 2.42386 15.908023 37.027298
2009-08-04 07:21:03 51°12.272 2°48.261 23.219 2.423757 15.907281 37.027298
2009-08-04 07:21:08 51°12.264 2°48.238 23.2166 2.425721 15.921948 37.027298
2009-08-04 07:21:14 51°12.253 2°48.211 23.2187 2.424687 15.914799 36.992474
2009-08-04 07:21:18 51°12.246 2°48.193 23.1891 2.423757 15.907837 36.992474
2009-08-04 07:21:23 51°12.237 2°48.17 23.2139 2.423137 15.903103 37.027298
2009-08-04 07:21:28 51°12.229 2°48.147 23.1887 2.423137 15.903103 37.027298
2009-08-04 07:21:34 51°12.219 2°48.12 23.2329 2.42293 15.901618 37.027298
2009-08-04 07:21:38 51°12.213 2°48.101 23.2174 2.425307 15.918977 37.027298
2009-08-04 07:21:43 51°12.204 2°48.078 23.256 2.423447 15.905609 36.992474
2009-08-04 07:21:48 51°12.196 2°48.055 19.2975 4.884963 34.580064 30.793793
2009-08-04 07:21:53 51°12.188 2°48.032 19.1766 4.897744 34.639963 28.87847
2009-08-04 07:21:58 51°12.179 2°48.009 19.1443 4.206422 29.239873 27.381036
2009-08-04 07:22:04 51°12.169 2°47.982 19.1025 4.206422 29.239873 27.381036
2009-08-04 07:22:08 51°12.162 2°47.963 19.0744 4.78304 33.748426 26.893499
2009-08-04 07:22:14 51°12.152 2°47.936 19.0616 4.755506 33.225265 21.391298
2009-08-04 07:22:18 51°12.145 2°47.918 19.0508 4.808807 34.045026 19.650096
2009-08-04 07:22:24 51°12.135 2°47.89 19.0423 4.83427 34.714644 18.883966
2009-08-04 07:22:29 51°12.126 2°47.867 19.0351 4.773812 34.570441 18.814318
2009-08-04 07:22:34 51°12.118 2°47.844 19.0333 4.773812 34.570441 18.814318
2009-08-04 07:22:38 51°12.112 2°47.825 19.0281 4.745874 34.653699 18.779494
2009-08-04 07:22:44 51°12.102 2°47.797 19.0271 4.708484 34.563265 18.675022
2009-08-04 07:22:49 51°12.094 2°47.773 19.0243 4.677015 34.440739 18.57055
2009-08-04 07:22:54 51°12.086 2°47.75 19.0227 4.67255 34.468892 18.500902
2009-08-04 07:22:58 51°12.08 2°47.731 19.0224 4.67255 34.468892 18.500902
2009-08-04 07:23:03 51°12.072 2°47.708 19.0203 4.659881 34.418243 18.605374
2009-08-04 07:23:09 51°12.062 2°47.68 19.0197 4.635164 34.250936 18.535726
2009-08-04 07:23:14 51°12.054 2°47.656 19.0194 4.655 34.438541 18.57055
2009-08-04 07:23:18 51°12.048 2°47.637 19.0175 4.647731 34.39571 18.605374
2009-08-04 07:23:23 51°12.04 2°47.614 19.0182 4.652716 34.448076 18.74467
2009-08-04 07:23:28 51°12.033 2°47.59 19.016 4.652716 34.448076 18.74467
2009-08-04 07:23:34 51°12.024 2°47.561 19.0157 4.644927 34.394439 18.779494
2009-08-04 07:23:38 51°12.018 2°47.542 19.0152 4.650016 34.446401 18.849142
2009-08-04 07:23:43 51°12.011 2°47.518 19.0159 4.62748 34.265153 18.849142
2009-08-04 07:23:48 51°12.004 2°47.494 19.0156 4.634127 34.325482 18.918791
2009-08-04 07:23:54 51°11.997 2°47.464 19.0156 4.645758 34.424654 19.058087
2009-08-04 07:23:58 51°11.992 2°47.445 19.0157 4.646901 34.438034 18.988439
2009-08-04 07:24:03 51°11.986 2°47.42 19.0158 4.646901 34.438034 18.988439
2009-08-04 07:24:08 51°11.98 2°47.395 19.0155 4.633711 34.33173 19.127735
2009-08-04 07:24:14 51°11.974 2°47.364 19.0147 4.637242 34.362346 19.162559
2009-08-04 07:24:18 51°11.97 2°47.344 19.013 4.624573 34.261664 19.197383
2009-08-04 07:24:24 51°11.964 2°47.314 19.0125 4.641189 34.401604 19.301855
2009-08-04 07:24:28 51°11.96 2°47.294 19.0103 4.635373 34.353292 19.371503
2009-08-04 07:24:34 51°11.954 2°47.263 19.0089 4.635373 34.353292 19.371503
2009-08-04 07:24:38 51°11.95 2°47.243 19.0087 4.634439 34.348765 19.406327
2009-08-04 07:24:44 51°11.945 2°47.212 19.0049 4.625819 34.279114 19.475975
2009-08-04 07:24:49 51°11.94 2°47.187 19.0045 4.641605 34.41089 19.615272
2009-08-04 07:24:54 51°11.935 2°47.161 19.0029 4.632673 34.338629 19.580448
2009-08-04 07:24:58 51°11.931 2°47.141 19.002 4.632673 34.338629 19.580448
2009-08-04 07:25:04 51°11.926 2°47.11 19.003 4.649498 34.479735 19.650096
2009-08-04 07:25:09 51°11.921 2°47.085 18.9998 4.648563 34.473265 19.789392
2009-08-04 07:25:14 51°11.917 2°47.059 18.9997 4.62073 34.244603 19.754568
2009-08-04 07:25:18 51°11.913 2°47.039 18.997 4.647005 34.465512 19.85904
2009-08-04 07:25:23 51°11.909 2°47.013 18.9964 4.634127 34.361068 19.85904
2009-08-04 07:25:29 51°11.903 2°46.982 18.9966 4.629766 34.326765 19.893864
2009-08-04 07:25:34 51°11.899 2°46.956 18.9935 4.629766 34.326765 19.893864
2009-08-04 07:25:38 51°11.895 2°46.936 18.9926 4.638281 34.399483 19.928688
2009-08-04 07:25:43 51°11.891 2°46.91 18.9905 4.638282 34.400781 19.998336
2009-08-04 07:25:48 51°11.886 2°46.884 18.9899 4.624365 34.286422 20.03316
2009-08-04 07:25:54 51°11.88 2°46.853 18.9875 4.629973 34.334964 19.998336
2009-08-04 07:25:58 51°11.877 2°46.833 18.9869 4.634024 34.369925 20.067984
2009-08-04 07:26:03 51°11.872 2°46.807 18.9861 4.634024 34.369925 20.067984
2009-08-04 07:26:08 51°11.867 2°46.782 18.9851 4.630804 34.34446 20.067984
2009-08-04 07:26:13 51°11.862 2°46.756 18.9837 4.635893 34.389355 20.207281
2009-08-04 07:26:18 51°11.856 2°46.73 18.983 4.62125 34.268938 20.172456
2009-08-04 07:26:23 51°11.851 2°46.704 18.9821 4.630181 34.343815 20.172456
2009-08-04 07:26:28 51°11.846 2°46.679 18.9807 4.630181 34.343815 20.172456
2009-08-04 07:26:34 51°11.84 2°46.648 18.9802 4.639009 34.420454 20.276929
2009-08-04 07:26:38 51°11.835 2°46.628 18.9782 4.641294 34.440755 20.276929
2009-08-04 07:26:44 51°11.829 2°46.597 18.9781 4.638282 34.417655 20.276929
2009-08-04 07:26:48 51°11.825 2°46.576 18.9763 4.640255 34.435366 20.276929
2009-08-04 07:26:54 51°11.819 2°46.545 18.9752 4.633089 34.377066 20.276929
2009-08-04 07:26:58 51°11.815 2°46.525 18.9744 4.633089 34.377066 20.276929
2009-08-04 07:27:04 51°11.809 2°46.494 18.9741 4.640982 34.443362 20.311753
2009-08-04 07:27:09 51°11.803 2°46.469 18.9708 4.644721 34.475767 20.276929
2009-08-04 07:27:14 51°11.798 2°46.443 18.97 4.634336 34.390675 20.242105
2009-08-04 07:27:18 51°11.794 2°46.423 18.9694 4.642332 34.458495 20.276929
2009-08-04 07:27:23 51°11.789 2°46.397 18.9683 4.644409 34.477729 20.311753
2009-08-04 07:27:29 51°11.782 2°46.367 18.9666 4.62852 34.346847 20.311753
2009-08-04 07:27:34 51°11.777 2°46.341 18.9645 4.62852 34.346847 20.311753
2009-08-04 07:27:38 51°11.773 2°46.321 18.9634 4.626235 34.329143 20.311753
2009-08-04 07:27:43 51°11.767 2°46.295 18.963 4.627274 34.339075 20.311753
2009-08-04 07:27:49 51°11.761 2°46.265 18.9608 4.620004 34.280566 20.311753
2009-08-04 07:27:54 51°11.755 2°46.239 18.9597 4.641294 34.458959 20.311753
2009-08-04 07:27:58 51°11.751 2°46.219 18.96 4.641605 34.462853 20.346577
2009-08-04 07:28:03 51°11.746 2°46.193 18.9584 4.641605 34.462853 20.346577
2009-08-04 07:28:08 51°11.74 2°46.168 18.9569 4.635997 34.417485 20.346577
2009-08-04 07:28:13 51°11.735 2°46.143 18.9565 4.621978 34.302801 20.416225
2009-08-04 07:28:18 51°11.729 2°46.117 18.9539 4.621354 34.298914 20.451049
2009-08-04 07:28:23 51°11.724 2°46.092 18.9528 4.639736 34.45315 20.381401
2009-08-04 07:28:28 51°11.719 2°46.066 18.9504 4.639736 34.45315 20.381401
2009-08-04 07:28:33 51°11.713 2°46.041 18.9482 4.639217 34.45078 20.485873
2009-08-04 07:28:38 51°11.708 2°46.015 18.9461 4.621458 34.303663 20.555521
2009-08-04 07:28:44 51°11.701 2°45.985 18.9456 4.63579 34.423556 20.625169
2009-08-04 07:28:48 51°11.697 2°45.965 18.9434 4.635063 34.418806 20.659993
2009-08-04 07:28:54 51°11.69 2°45.934 18.9399 4.641086 34.470246 20.694817
2009-08-04 07:28:58 51°11.686 2°45.914 18.9407 4.635375 34.424649 20.694817
2009-08-04 07:29:04 51°11.679 2°45.883 18.9399 4.635375 34.424649 20.694817
2009-08-04 07:29:08 51°11.675 2°45.863 18.9389 4.645033 34.507013 20.799289
2009-08-04 07:29:14 51°11.669 2°45.832 18.9353 4.624678 34.339522 20.799289
2009-08-04 07:29:18 51°11.664 2°45.812 18.9313 4.636205 34.437419 20.834113
2009-08-04 07:29:24 51°11.658 2°45.781 18.9271 4.635998 34.437641 20.903762
2009-08-04 07:29:29 51°11.652 2°45.756 18.9271 4.638594 34.460561 20.97341
2009-08-04 07:29:34 51°11.647 2°45.731 18.9236 4.638594 34.460561 20.97341
2009-08-04 07:29:38 51°11.643 2°45.71 18.922 4.643787 34.505109 21.043058
2009-08-04 07:29:43 51°11.637 2°45.685 18.9206 4.635582 34.438737 21.112706
2009-08-04 07:29:49 51°11.631 2°45.654 18.917 4.634855 34.433985 21.14753
2009-08-04 07:29:54 51°11.625 2°45.629 18.919 4.639425 34.474645 21.182354
2009-08-04 07:29:58 51°11.621 2°45.608 18.9166 4.639425 34.474645 21.182354
2009-08-04 07:30:03 51°11.616 2°45.583 18.916 4.640256 34.484172 21.217178
2009-08-04 07:30:08 51°11.61 2°45.558 18.9135 4.637971 34.467095 21.252002
2009-08-04 07:30:14 51°11.604 2°45.527 18.9091 4.64036 34.490252 21.32165
2009-08-04 07:30:18 51°11.599 2°45.507 18.9075 4.629663 34.403753 21.32165
2009-08-04 07:30:23 51°11.594 2°45.482 18.9051 4.628729 34.39792 21.32165
2009-08-04 07:30:28 51°11.588 2°45.456 18.9039 4.628729 34.39792 21.32165
2009-08-04 07:30:34 51°11.581 2°45.426 18.9015 4.631636 34.423442 21.356474
2009-08-04 07:30:38 51°11.577 2°45.406 18.8994 4.637764 34.475791 21.391298
2009-08-04 07:30:43 51°11.571 2°45.381 18.8958 4.635687 34.459789 21.460946
2009-08-04 07:30:48 51°11.566 2°45.355 18.8959 4.617201 34.308419 21.460946
2009-08-04 07:30:53 51°11.56 2°45.33 18.8924 4.625821 34.382153 21.495771
2009-08-04 07:30:58 51°11.555 2°45.304 18.8924 4.638179 34.487078 21.565419
2009-08-04 07:31:04 51°11.549 2°45.274 18.8887 4.638179 34.487078 21.565419
2009-08-04 07:31:08 51°11.544 2°45.253 18.8851 4.634648 34.460259 21.565419
2009-08-04 07:31:14 51°11.538 2°45.222 18.8846 4.629663 34.420022 21.565419
2009-08-04 07:31:18 51°11.534 2°45.202 18.8836 4.636102 34.476289 21.635067
2009-08-04 07:31:24 51°11.527 2°45.171 18.8812 4.61689 34.318154 21.600243
2009-08-04 07:31:29 51°11.522 2°45.146 18.8779 4.63496 34.47068 21.600243
2009-08-04 07:31:34 51°11.517 2°45.12 18.8755 4.63496 34.47068 21.600243
2009-08-04 07:31:38 51°11.513 2°45.1 18.8731 4.623017 34.373099 21.565419
2009-08-04 07:31:44 51°11.506 2°45.07 18.8732 4.628002 34.415942 21.565419
2009-08-04 07:31:49 51°11.501 2°45.044 18.8703 4.614398 34.305831 21.635067
2009-08-04 07:31:54 51°11.496 2°45.019 18.8695 4.62364 34.384146 21.635067
2009-08-04 07:31:58 51°11.491 2°44.998 18.8678 4.62364 34.384146 21.635067
2009-08-04 07:32:03 51°11.486 2°44.973 18.866 4.630702 34.445617 21.669891
2009-08-04 07:32:09 51°11.48 2°44.942 18.8634 4.621979 34.374202 21.669891
2009-08-04 07:32:14 51°11.475 2°44.917 18.8625 4.631429 34.455591 21.704715
2009-08-04 07:32:18 51°11.47 2°44.897 18.8622 4.63361 34.476387 21.704715
2009-08-04 07:32:23 51°11.465 2°44.871 18.8595 4.61824 34.349545 21.739539
2009-08-04 07:32:29 51°11.459 2°44.841 18.8596 4.631637 34.463194 21.704715
2009-08-04 07:32:34 51°11.453 2°44.815 18.8573 4.631637 34.463194 21.704715
2009-08-04 07:32:38 51°11.449 2°44.795 18.8557 4.629145 34.444365 21.704715
2009-08-04 07:32:43 51°11.444 2°44.769 18.8523 4.620525 34.373795 21.704715
2009-08-04 07:32:48 51°11.438 2°44.744 18.8507 4.626652 34.426839 21.704715
2009-08-04 07:32:54 51°11.432 2°44.714 18.8478 4.626756 34.429661 21.739539
2009-08-04 07:32:58 51°11.427 2°44.694 18.8461 4.635999 34.508068 21.739539
2009-08-04 07:33:03 51°11.421 2°44.669 18.8425 4.635999 34.508068 21.739539
2009-08-04 07:33:08 51°11.416 2°44.643 18.8419 4.629976 34.459776 21.704715
2009-08-04 07:33:14 51°11.409 2°44.613 18.8396 4.633714 34.491619 21.704715
2009-08-04 07:33:18 51°11.405 2°44.592 18.8393 4.624783 34.419072 21.669891
2009-08-04 07:33:24 51°11.399 2°44.562 18.836 4.624368 34.418215 21.669891
2009-08-04 07:33:28 51°11.394 2°44.542 18.8379 4.62956 34.463491 21.635067
2009-08-04 07:33:34 51°11.388 2°44.511 18.8369 4.62956 34.463491 21.635067
2009-08-04 07:33:38 51°11.384 2°44.491 18.8345 4.621149 34.395924 21.600243
2009-08-04 07:33:44 51°11.377 2°44.46 18.8337 4.627899 34.454197 21.600243
2009-08-04 07:33:49 51°11.372 2°44.435 18.8336 4.627276 34.450956 21.600243
2009-08-04 07:33:54 51°11.366 2°44.41 18.8337 4.62821 34.460061 21.600243
2009-08-04 07:33:58 51°11.362 2°44.39 18.8306 4.62821 34.460061 21.600243
2009-08-04 07:34:03 51°11.356 2°44.365 18.8311 4.623537 34.422371 21.600243
2009-08-04 07:34:09 51°11.35 2°44.334 18.8286 4.628003 34.46094 21.565419
2009-08-04 07:34:14 51°11.345 2°44.309 18.8286 4.628003 34.4629 21.565419
2009-08-04 07:34:18 51°11.341 2°44.289 18.8293 4.620422 34.400288 21.530595
2009-08-04 07:34:23 51°11.336 2°44.263 18.8258 4.616579 34.369533 21.530595
2009-08-04 07:34:29 51°11.33 2°44.232 18.8257 4.630599 34.487184 21.565419
2009-08-04 07:34:34 51°11.326 2°44.207 18.8248 4.630599 34.487184 21.565419
2009-08-04 07:34:38 51°11.322 2°44.186 18.8243 4.634234 34.518183 21.565419
2009-08-04 07:34:43 51°11.317 2°44.161 18.8245 4.622083 34.418067 21.530595
2009-08-04 07:34:48 51°11.312 2°44.135 18.822 4.628938 34.475928 21.530595
2009-08-04 07:34:54 51°11.306 2°44.105 18.8194 4.626237 34.454043 21.530595
2009-08-04 07:34:58 51°11.303 2°44.084 18.8178 4.632261 34.505634 21.530595
2009-08-04 07:35:03 51°11.298 2°44.058 18.8168 4.632261 34.505634 21.530595
2009-08-04 07:35:08 51°11.294 2°44.033 18.816 4.632261 34.506288 21.495771
2009-08-04 07:35:14 51°11.289 2°44.002 18.8143 4.631742 34.502607 21.495771
2009-08-04 07:35:18 51°11.286 2°43.981 18.813 4.633403 34.517135 21.495771
2009-08-04 07:35:23 51°11.282 2°43.955 18.8125 4.633196 34.517364 21.460946
2009-08-04 07:35:28 51°11.278 2°43.929 18.8094 4.633196 34.517364 21.460946
2009-08-04 07:35:34 51°11.273 2°43.898 18.8071 4.629976 34.49179 21.426122
2009-08-04 07:35:38 51°11.27 2°43.877 18.8053 4.630911 34.500903 21.426122
2009-08-04 07:35:44 51°11.266 2°43.846 18.8064 4.632988 34.519557 21.356474
2009-08-04 07:35:48 51°11.263 2°43.825 18.8046 4.632053 34.51306 21.391298
2009-08-04 07:35:54 51°11.26 2°43.794 18.8044 4.629976 34.497023 21.391298
2009-08-04 07:35:58 51°11.257 2°43.773 18.8042 4.629976 34.497023 21.391298
2009-08-04 07:36:04 51°11.253 2°43.741 18.8023 4.622499 34.436548 21.356474
2009-08-04 07:36:09 51°11.25 2°43.715 18.8008 4.628626 34.489674 21.32165
2009-08-04 07:36:14 51°11.247 2°43.689 18.8013 4.62738 34.480574 21.32165
2009-08-04 07:36:18 51°11.244 2°43.668 18.7981 4.631327 34.514844 21.286826
2009-08-04 07:36:24 51°11.241 2°43.637 18.7959 4.630911 34.512684 21.32165
2009-08-04 07:36:29 51°11.237 2°43.611 18.7937 4.631223 34.515941 21.286826
2009-08-04 07:36:34 51°11.234 2°43.585 18.792 4.631223 34.515941 21.286826
2009-08-04 07:36:38 51°11.232 2°43.564 18.7886 4.626134 34.47409 21.252002
2009-08-04 07:36:43 51°11.229 2°43.538 18.7852 4.6306 34.513355 21.252002
2009-08-04 07:36:48 51°11.226 2°43.512 18.7839 4.628315 34.494923 21.217178
2009-08-04 07:36:54 51°11.221 2°43.481 18.7809 4.62873 34.500357 21.217178
2009-08-04 07:36:58 51°11.219 2°43.461 18.779 4.630288 34.514026 21.217178
2009-08-04 07:37:03 51°11.216 2°43.434 18.776 4.630288 34.514026 21.217178
2009-08-04 07:37:08 51°11.213 2°43.409 18.7744 4.623953 34.463722 21.182354
2009-08-04 07:37:14 51°11.209 2°43.377 18.7722 4.623746 34.463948 21.14753
2009-08-04 07:37:18 51°11.207 2°43.357 18.7713 4.626238 34.487389 21.112706
2009-08-04 07:37:23 51°11.205 2°43.331 18.7706 4.626861 34.495214 21.14753
2009-08-04 07:37:28 51°11.202 2°43.305 18.7677 4.626861 34.495214 21.14753
2009-08-04 07:37:33 51°11.2 2°43.278 18.7694 4.626861 34.497178 21.112706
2009-08-04 07:37:38 51°11.199 2°43.252 18.7651 4.622915 34.465511 21.077882
2009-08-04 07:37:43 51°11.197 2°43.226 18.7649 4.613569 34.39004 21.043058
2009-08-04 07:37:48 51°11.195 2°43.2 18.7635 4.626238 34.497865 21.077882
2009-08-04 07:37:54 51°11.193 2°43.169 18.7624 4.621461 34.459905 21.077882
2009-08-04 07:37:58 51°11.192 2°43.148 18.7624 4.623123 34.4751 21.077882
2009-08-04 07:38:04 51°11.19 2°43.116 18.7612 4.623123 34.4751 21.077882
2009-08-04 07:38:08 51°11.189 2°43.095 18.7585 4.624161 34.485089 21.043058
2009-08-04 07:38:14 51°11.187 2°43.064 18.76 4.619177 34.445391 21.008234
2009-08-04 07:38:18 51°11.186 2°43.043 18.7585 4.626031 34.50399 21.043058
2009-08-04 07:38:24 51°11.184 2°43.012 18.7582 4.62655 34.508987 21.008234
2009-08-04 07:38:29 51°11.183 2°42.986 18.758 4.623227 34.482516 21.008234
2009-08-04 07:38:34 51°11.182 2°42.96 18.7577 4.623227 34.482516 21.008234
2009-08-04 07:38:38 51°11.18 2°42.939 18.7549 4.621254 34.467331 21.008234
2009-08-04 07:38:43 51°11.179 2°42.914 18.755 4.624161 34.492949 21.008234
2009-08-04 07:38:49 51°11.177 2°42.884 18.754 4.620215 34.460614 21.008234
2009-08-04 07:38:54 51°11.175 2°42.859 18.7542 4.622188 34.477764 20.97341
2009-08-04 07:38:58 51°11.174 2°42.839 18.7526 4.623538 34.489705 21.008234
2009-08-04 07:39:03 51°11.172 2°42.815 18.7516 4.623538 34.489705 21.008234
2009-08-04 07:39:08 51°11.17 2°42.79 18.7522 4.6225 34.481678 20.97341
2009-08-04 07:39:14 51°11.168 2°42.761 18.7526 4.62385 34.493621 20.938586
2009-08-04 07:39:18 51°11.167 2°42.742 18.7521 4.619281 34.457383 20.938586
2009-08-04 07:39:23 51°11.165 2°42.717 18.7509 4.62385 34.496242 20.938586
2009-08-04 07:39:28 51°11.163 2°42.693 18.7521 4.62385 34.496242 20.938586
2009-08-04 07:39:34 51°11.161 2°42.665 18.7533 4.62385 34.497553 20.938586
2009-08-04 07:39:38 51°11.16 2°42.645 18.7538 4.616477 34.435906 20.903762
2009-08-04 07:39:43 51°11.158 2°42.623 18.756 4.6198 34.464343 20.938586
2009-08-04 07:39:48 51°11.156 2°42.601 18.7566 4.619385 34.461524 20.938586
2009-08-04 07:39:53 51°11.155 2°42.581 18.7574 4.621358 34.478022 20.868938
2009-08-04 07:39:58 51°11.153 2°42.561 18.7596 4.618346 34.452842 20.903762
2009-08-04 07:40:04 51°11.152 2°42.539 18.7624 4.618346 34.452842 20.903762
2009-08-04 07:40:08 51°11.151 2°42.525 18.7617 4.606092 34.350415 20.868938
2009-08-04 07:40:14 51°11.149 2°42.505 18.7633 4.610454 34.386213 20.868938
2009-08-04 07:40:18 51°11.148 2°42.492 18.7647 4.620423 34.468898 20.868938
2009-08-04 07:40:24 51°11.147 2°42.474 18.7662 4.624473 34.502108 20.868938
2009-08-04 07:40:29 51°11.145 2°42.459 18.7674 4.620319 34.466065 20.868938
2009-08-04 07:40:34 51°11.144 2°42.444 18.7685 4.620319 34.466065 20.868938
2009-08-04 07:40:38 51°11.143 2°42.433 18.7688 4.623019 34.48733 20.834113
2009-08-04 07:40:44 51°11.142 2°42.417 18.7718 4.624058 34.495357 20.868938
2009-08-04 07:40:49 51°11.141 2°42.404 18.7725 4.620527 34.464528 20.799289
2009-08-04 07:40:54 51°11.139 2°42.391 18.7739 4.621461 34.470377 20.799289
2009-08-04 07:40:58 51°11.139 2°42.382 18.775 4.621461 34.470377 20.799289
2009-08-04 07:41:03 51°11.137 2°42.369 18.7768 4.622396 34.477535 20.764465
2009-08-04 07:41:09 51°11.136 2°42.355 18.7765 4.614711 34.412649 20.834113
2009-08-04 07:41:14 51°11.135 2°42.344 18.7778 4.6279 34.521585 20.799289
2009-08-04 07:41:18 51°11.134 2°42.334 18.7795 4.628108 34.52201 20.799289
2009-08-04 07:41:23 51°11.133 2°42.323 18.7789 4.628315 34.522435 20.799289
2009-08-04 07:41:28 51°11.131 2°42.312 18.7797 4.628315 34.522435 20.799289
2009-08-04 07:41:34 51°11.13 2°42.298 18.7803 4.628523 34.52286 20.764465
2009-08-04 07:41:38 51°11.129 2°42.289 18.7816 4.628731 34.523286 20.764465
2009-08-04 07:41:43 51°11.128 2°42.278 18.7817 4.628835 34.522843 20.764465
2009-08-04 07:41:48 51°11.127 2°42.268 18.7838 4.629042 34.523923 20.764465
2009-08-04 07:41:54 51°11.126 2°42.255 18.7838 4.629146 34.52348 20.729641
2009-08-04 07:41:58 51°11.126 2°42.246 18.7856 4.62925 34.523693 20.764465
2009-08-04 07:42:03 51°11.125 2°42.236 18.7862 4.62925 34.523693 20.764465
2009-08-04 07:42:08 51°11.124 2°42.226 18.7861 4.629354 34.523906 20.764465
2009-08-04 07:42:14 51°11.123 2°42.215 18.7871 4.629458 34.524118 20.764465
2009-08-04 07:42:18 51°11.122 2°42.207 18.7894 4.629665 34.525199 20.764465
2009-08-04 07:42:24 51°11.121 2°42.196 18.7883 4.629769 34.524756 20.764465
2009-08-04 07:42:28 51°11.121 2°42.189 18.7883 4.629873 34.524969 20.764465
2009-08-04 07:42:34 51°11.119 2°42.178 18.7893 4.629873 34.524969 20.764465
2009-08-04 07:42:38 51°11.119 2°42.171 18.7895 4.630081 34.526049 20.764465
2009-08-04 07:42:44 51°11.118 2°42.161 18.7907 4.630081 34.524738 20.764465
2009-08-04 07:42:49 51°11.117 2°42.153 18.7924 4.630288 34.525819 20.729641
2009-08-04 07:42:54 51°11.116 2°42.145 18.7921 4.630288 34.525819 20.729641
2009-08-04 07:42:58 51°11.115 2°42.139 18.793 4.630288 34.525819 20.729641
2009-08-04 07:43:04 51°11.115 2°42.13 18.7924 4.630392 34.526031 20.764465
2009-08-04 07:43:09 51°11.114 2°42.123 18.7937 4.630496 34.526244 20.729641
2009-08-04 07:43:14 51°11.113 2°42.117 18.7943 4.6306 34.526457 20.764465
2009-08-04 07:43:18 51°11.112 2°42.113 18.7942 4.630704 34.526669 20.764465
2009-08-04 07:43:23 51°11.111 2°42.108 18.796 4.630808 34.526226 20.729641
2009-08-04 07:43:29 51°11.111 2°42.103 18.7958 4.630911 34.527094 20.729641
2009-08-04 07:43:34 51°11.11 2°42.099 18.7965 4.630911 34.527094 20.729641
2009-08-04 07:43:38 51°11.109 2°42.096 18.7974 4.631015 34.527307 20.694817
2009-08-04 07:43:43 51°11.109 2°42.093 18.7977 4.631119 34.527519 20.729641
2009-08-04 07:43:48 51°11.109 2°42.09 18.7976 4.631119 34.527519 20.729641
2009-08-04 07:43:54 51°11.108 2°42.087 18.7972 4.631223 34.527732 20.729641
2009-08-04 07:43:58 51°11.108 2°42.086 18.7985 4.631327 34.527944 20.764465
2009-08-04 07:44:03 51°11.108 2°42.084 18.7982 4.631327 34.527944 20.764465
2009-08-04 07:44:08 51°11.107 2°42.082 18.799 4.631431 34.528157 20.729641
2009-08-04 07:44:14 51°11.107 2°42.08 18.798 4.631431 34.527502 20.764465
2009-08-04 07:44:18 51°11.107 2°42.078 18.7976 4.631431 34.526846 20.764465
2009-08-04 07:44:23 51°11.107 2°42.076 18.7974 4.631638 34.527927 20.764465
2009-08-04 07:44:28 51°11.106 2°42.075 18.7972 4.631638 34.527927 20.764465
2009-08-04 07:44:34 51°11.106 2°42.072 18.7961 4.631638 34.527927 20.764465
2009-08-04 07:44:38 51°11.106 2°42.071 18.7964 4.631638 34.527927 20.799289
2009-08-04 07:44:44 51°11.106 2°42.069 18.7959 4.631638 34.527272 20.834113
2009-08-04 07:44:48 51°11.106 2°42.067 18.7968 4.631742 34.528139 20.799289
2009-08-04 07:44:54 51°11.106 2°42.065 18.7961 4.631742 34.528794 20.799289
2009-08-04 07:44:58 51°11.105 2°42.063 18.7974 4.631742 34.528794 20.799289
2009-08-04 07:45:04 51°11.105 2°42.061 18.7956 4.631742 34.528794 20.764465